M I D A S
Marine Information and Data Acquisition System
Tripno 2104 of the Zeeleeuw from 2011-05-17 06:26:39 to 2011-05-17 15:57:41
Back to CruiseResearch ActivitiesStationsMapUnderway DataData graphs

EquipmentUnitsComment
TimeDGPSUTC
LatitudeDGPSDM.mWGS84
LongitudeDGPSDM.mWGS84
TemperatureSBE03/SBE38deg celciusITS90
ConductivitySBE21S/mITS90
SalinitySBE21 Practical Salinity Units
ChlorophylAChelsea fluorimeterg/lCalibrated in Aceton
Missing or incorrect values are displayed as -999
Sea surface data collected by the RV Zeeleeuw from 2011-05-17 06:31:10 to 2011-05-17 15:59:54
                                                                                    Next 1000 lines
Time Latitude Longitude Temperature Conductivity Salinity ChlorophylA
2011-05-17 06:31:19 51°13.615 2°56.063 18.5646 0.062759 0.359788 -3.020363
2011-05-17 06:31:24 51°13.616 2°56.061 18.5765 0.062759 0.359788 -3.020363
2011-05-17 06:31:30 51°13.617 2°56.057 18.5851 0.062759 0.359794 -3.020363
2011-05-17 06:31:34 51°13.617 2°56.055 18.6 0.062759 0.359794 -3.020363
2011-05-17 06:31:40 51°13.619 2°56.051 18.6105 0.062759 0.359794 -3.020363
2011-05-17 06:31:46 51°13.62 2°56.047 18.617 0.062759 0.359794 -3.020363
2011-05-17 06:31:51 51°13.62 2°56.046 18.6143 0.062759 0.359794 -3.020363
2011-05-17 06:31:58 51°13.62 2°56.047 18.5998 0.062759 0.359794 -3.020363
2011-05-17 06:32:02 51°13.62 2°56.048 18.5991 0.062759 0.359801 -3.020363
2011-05-17 06:32:08 51°13.62 2°56.049 18.5931 0.062759 0.359801 -3.020363
2011-05-17 06:32:13 51°13.62 2°56.05 18.5921 0.062759 0.359801 -3.020363
2011-05-17 06:32:19 51°13.62 2°56.051 18.5945 0.062759 0.359801 -3.020363
2011-05-17 06:32:23 51°13.62 2°56.052 18.5962 0.062759 0.359808 -3.020363
2011-05-17 06:32:28 51°13.62 2°56.053 18.5959 0.062759 0.359808 -3.020363
2011-05-17 06:32:33 51°13.62 2°56.054 18.5945 0.062759 0.359808 -3.020363
2011-05-17 06:32:38 51°13.62 2°56.055 18.5867 0.062759 0.359808 -3.020363
2011-05-17 06:32:43 51°13.62 2°56.056 18.5777 0.062759 0.359808 -3.020363
2011-05-17 06:32:48 51°13.62 2°56.057 18.5867 0.062759 0.359808 -3.020363
2011-05-17 06:32:53 51°13.62 2°56.058 18.5979 0.062759 0.359815 -3.020363
2011-05-17 06:32:58 51°13.62 2°56.058 18.6012 0.062759 0.359815 -3.020363
2011-05-17 06:33:02 51°13.619 2°56.059 18.5994 0.062759 0.359815 -3.020363
2011-05-17 06:33:08 51°13.619 2°56.06 18.6003 0.062759 0.359815 -3.020363
2011-05-17 06:33:13 51°13.619 2°56.06 18.6004 0.062759 0.359815 -3.020363
2011-05-17 06:33:18 51°13.619 2°56.061 18.6002 0.062759 0.359822 -3.020363
2011-05-17 06:33:23 51°13.619 2°56.062 18.5996 0.062759 0.359822 -3.020363
2011-05-17 06:33:28 51°13.618 2°56.062 18.5977 0.062759 0.359822 -3.020363
2011-05-17 06:33:32 51°13.618 2°56.062 18.6012 0.062759 0.359828 -3.020363
2011-05-17 06:33:37 51°13.617 2°56.063 18.6011 0.062759 0.359828 -3.020363
2011-05-17 06:33:42 51°13.617 2°56.064 18.6017 0.062759 0.359828 -3.020363
2011-05-17 06:33:47 51°13.617 2°56.064 18.6021 0.062759 0.359835 -3.020363
2011-05-17 06:33:52 51°13.616 2°56.065 18.6029 0.062759 0.359835 -3.020363
2011-05-17 06:33:57 51°13.616 2°56.066 18.6025 0.062759 0.359835 -3.020363
2011-05-17 06:34:02 51°13.616 2°56.066 18.6032 0.062759 0.359835 -3.020363
2011-05-17 06:34:07 51°13.615 2°56.067 18.6042 0.062759 0.359842 -3.020363
2011-05-17 06:34:12 51°13.615 2°56.067 18.6051 0.062759 0.359842 -3.020363
2011-05-17 06:34:16 51°13.615 2°56.068 18.6051 0.062759 0.359842 -3.020363
2011-05-17 06:34:21 51°13.615 2°56.068 18.6049 0.062759 0.359835 -3.020363
2011-05-17 06:34:26 51°13.614 2°56.069 18.6057 0.062759 0.359842 -3.020363
2011-05-17 06:34:31 51°13.614 2°56.07 18.6077 0.062759 0.359842 -3.020363
2011-05-17 06:34:36 51°13.615 2°56.07 18.6071 0.062759 0.359842 -3.020363
2011-05-17 06:34:41 51°13.615 2°56.07 18.6176 0.062759 0.359842 -3.020363
2011-05-17 06:34:46 51°13.615 2°56.07 18.6153 0.062759 0.359855 -3.020363
2011-05-17 06:34:50 51°13.615 2°56.07 18.6162 0.062759 0.359855 -3.020363
2011-05-17 06:34:55 51°13.614 2°56.07 18.6169 0.062759 0.359855 -3.020363
2011-05-17 06:35:00 51°13.614 2°56.07 18.6204 0.062759 0.359862 -3.020363
2011-05-17 06:35:05 51°13.614 2°56.07 18.6208 0.062759 0.359862 -3.020363
2011-05-17 06:35:10 51°13.614 2°56.07 18.6212 0.062759 0.359862 -3.020363
2011-05-17 06:35:15 51°13.614 2°56.07 18.6214 0.062759 0.359862 -3.020363
2011-05-17 06:35:20 51°13.614 2°56.07 18.6214 0.062759 0.359869 -3.020363
2011-05-17 06:35:24 51°13.614 2°56.07 18.6209 0.062759 0.359862 -3.020363
2011-05-17 06:35:28 51°13.614 2°56.07 18.6215 0.062759 0.359869 -3.020363
2011-05-17 06:35:34 51°13.614 2°56.07 18.6212 0.062759 0.359869 -3.020363
2011-05-17 06:35:40 51°13.614 2°56.07 18.622 0.062759 0.359869 -3.020363
2011-05-17 06:35:44 51°13.614 2°56.07 18.6223 0.062759 0.359869 -3.020363
2011-05-17 06:35:50 51°13.614 2°56.07 18.6229 0.062759 0.359869 -3.020363
2011-05-17 06:35:55 51°13.614 2°56.07 18.623 0.062759 0.359869 -3.020363
2011-05-17 06:35:59 51°13.614 2°56.07 18.6232 0.062759 0.359876 -3.020363
2011-05-17 06:36:04 51°13.614 2°56.07 18.623 0.062759 0.359876 -3.020363
2011-05-17 06:36:09 51°13.613 2°56.069 18.6235 0.062759 0.359876 -3.020363
2011-05-17 06:36:15 51°13.613 2°56.069 18.6235 0.062759 0.359876 -3.020363
2011-05-17 06:36:20 51°13.613 2°56.069 18.6231 0.062759 0.359883 -3.020363
2011-05-17 06:36:24 51°13.613 2°56.069 18.6204 0.062759 0.359883 -3.020363
2011-05-17 06:36:29 51°13.613 2°56.069 18.5919 0.062759 0.359883 -3.020363
2011-05-17 06:36:35 51°13.613 2°56.069 18.5981 0.062759 0.359883 -3.020363
2011-05-17 06:36:40 51°13.614 2°56.067 18.5703 0.062759 0.359883 -3.020363
2011-05-17 06:36:45 51°13.614 2°56.064 18.5624 0.062759 0.359883 -3.020363
2011-05-17 06:36:50 51°13.615 2°56.06 18.6091 0.062759 0.359889 -3.020363
2011-05-17 06:36:55 51°13.616 2°56.055 18.625 0.062759 0.359889 -3.020363
2011-05-17 06:37:01 51°13.618 2°56.047 18.6107 0.062759 0.359889 -3.020363
2011-05-17 06:37:06 51°13.619 2°56.04 18.6137 0.062759 0.359889 -3.020363
2011-05-17 06:37:12 51°13.622 2°56.03 18.6219 0.062759 0.359889 -3.020363
2011-05-17 06:37:17 51°13.625 2°56.022 18.6266 0.062759 0.359889 -3.020363
2011-05-17 06:37:23 51°13.628 2°56.01 18.6346 0.062759 0.359889 -3.020363
2011-05-17 06:37:28 51°13.63 2°56.001 18.6264 0.062759 0.359883 -3.020363
2011-05-17 06:37:33 51°13.633 2°55.992 18.6279 0.062759 0.359889 -3.020363
2011-05-17 06:37:38 51°13.635 2°55.983 18.6315 0.062759 0.359889 -3.020363
2011-05-17 06:37:43 51°13.637 2°55.975 18.6334 0.062759 0.359889 -3.020363
2011-05-17 06:37:48 51°13.639 2°55.967 18.6385 0.062759 0.359896 -3.020363
2011-05-17 06:37:53 51°13.64 2°55.961 18.6263 0.062759 0.359896 -3.020363
2011-05-17 06:37:58 51°13.641 2°55.956 18.6301 0.062759 0.359903 -3.020363
2011-05-17 06:38:03 51°13.642 2°55.955 18.5556 0.062759 0.359903 -3.020363
2011-05-17 06:38:08 51°13.643 2°55.952 18.5498 0.062759 0.359903 -3.020363
2011-05-17 06:38:13 51°13.644 2°55.949 18.5315 0.062759 0.359903 -3.020363
2011-05-17 06:38:18 51°13.645 2°55.944 18.5706 0.062759 0.359903 -3.020363
2011-05-17 06:38:22 51°13.646 2°55.939 18.627 0.062759 0.35991 -3.020363
2011-05-17 06:38:27 51°13.648 2°55.934 18.6324 0.062759 0.35991 -3.020363
2011-05-17 06:38:33 51°13.649 2°55.928 18.6337 0.062759 0.359917 -3.020363
2011-05-17 06:38:38 51°13.65 2°55.925 18.6295 0.062759 0.359917 -3.020363
2011-05-17 06:38:43 51°13.651 2°55.923 18.6253 0.062759 0.359917 -3.020363
2011-05-17 06:38:48 51°13.652 2°55.92 18.6323 0.062759 0.359917 -3.020363
2011-05-17 06:38:53 51°13.653 2°55.918 18.602 0.062759 0.359923 -3.020363
2011-05-17 06:38:58 51°13.653 2°55.916 18.6008 0.062759 0.359917 -3.020363
2011-05-17 06:39:03 51°13.654 2°55.914 18.5977 0.062759 0.35993 -3.020363
2011-05-17 06:39:08 51°13.655 2°55.911 18.5987 0.062759 0.359923 -3.020363
2011-05-17 06:39:13 51°13.657 2°55.907 18.5864 0.062759 0.359923 -3.020363
2011-05-17 06:39:18 51°13.658 2°55.902 18.6135 0.062759 0.35993 -3.020363
2011-05-17 06:39:22 51°13.66 2°55.898 18.6274 0.062759 0.35993 -3.020363
2011-05-17 06:39:28 51°13.662 2°55.891 18.627 0.062759 0.359937 -3.020363
2011-05-17 06:39:33 51°13.664 2°55.886 18.6274 0.062759 0.359937 -3.020363
2011-05-17 06:39:38 51°13.666 2°55.881 18.6225 0.062759 0.35993 -3.020363
2011-05-17 06:39:43 51°13.668 2°55.875 18.6267 0.062759 0.35993 -3.020363
2011-05-17 06:39:48 51°13.67 2°55.87 18.6264 0.062759 0.359937 -3.020363
2011-05-17 06:39:53 51°13.672 2°55.865 18.6271 0.062759 0.359937 -3.020363
2011-05-17 06:39:58 51°13.675 2°55.86 18.6245 0.062759 0.359937 -3.020363
2011-05-17 06:40:03 51°13.677 2°55.855 18.6257 0.062759 0.359937 -3.020363
2011-05-17 06:40:08 51°13.679 2°55.851 18.6256 0.062759 0.359944 -3.020363
2011-05-17 06:40:13 51°13.681 2°55.846 18.627 0.062759 0.359944 -3.020363
2011-05-17 06:40:18 51°13.683 2°55.841 18.6273 0.062759 0.359944 -3.020363
2011-05-17 06:40:23 51°13.685 2°55.836 18.6272 0.062759 0.359944 -3.020363
2011-05-17 06:40:28 51°13.687 2°55.831 18.6278 0.062657 0.359342 -3.020363
2011-05-17 06:40:33 51°13.689 2°55.826 18.6283 0.062657 0.359342 -3.020363
2011-05-17 06:40:38 51°13.691 2°55.821 18.628 0.062759 0.359957 -3.020363
2011-05-17 06:40:43 51°13.693 2°55.815 18.628 0.062759 0.359957 -3.020363
2011-05-17 06:40:48 51°13.695 2°55.81 18.6292 0.062759 0.359951 -3.020363
2011-05-17 06:40:53 51°13.697 2°55.804 18.6289 0.062759 0.359957 -3.020363
2011-05-17 06:40:58 51°13.698 2°55.799 18.6275 0.062759 0.359957 -3.020363
2011-05-17 06:41:03 51°13.7 2°55.793 18.6293 0.062759 0.359964 -3.020363
2011-05-17 06:41:08 51°13.701 2°55.787 18.6299 0.062657 0.359355 -3.020363
2011-05-17 06:41:13 51°13.703 2°55.781 18.6304 0.062657 0.359355 -3.020363
2011-05-17 06:41:18 51°13.704 2°55.775 18.6313 0.062759 0.359971 -3.020363
2011-05-17 06:41:23 51°13.705 2°55.77 18.634 0.062759 0.359971 -3.020363
2011-05-17 06:41:28 51°13.706 2°55.764 18.6329 0.062759 0.359978 -3.020363
2011-05-17 06:41:33 51°13.707 2°55.759 18.6326 0.062657 0.359369 -3.020363
2011-05-17 06:41:38 51°13.707 2°55.754 18.635 0.062759 0.359971 -3.020363
2011-05-17 06:41:43 51°13.708 2°55.75 18.6356 0.062759 0.359971 -3.020363
2011-05-17 06:41:48 51°13.708 2°55.747 18.6363 0.062759 0.359978 -3.020363
2011-05-17 06:41:53 51°13.709 2°55.745 18.6372 0.062657 0.359369 -3.020363
2011-05-17 06:41:58 51°13.709 2°55.743 18.6387 0.062657 0.359376 -3.020363
2011-05-17 06:42:03 51°13.71 2°55.742 18.6407 0.062759 0.359984 -3.020363
2011-05-17 06:42:07 51°13.71 2°55.742 18.6444 0.062759 0.359984 -3.020363
2011-05-17 06:42:12 51°13.71 2°55.742 18.6496 0.062759 0.359984 -3.020363
2011-05-17 06:42:17 51°13.711 2°55.742 18.6555 0.062657 0.359376 -3.020363
2011-05-17 06:42:22 51°13.712 2°55.743 18.6577 0.062759 0.359991 -3.020363
2011-05-17 06:42:27 51°13.713 2°55.744 18.6484 0.062759 0.359991 -3.020363
2011-05-17 06:42:32 51°13.713 2°55.745 18.6304 0.062759 0.359998 -3.020363
2011-05-17 06:42:37 51°13.714 2°55.745 18.6309 0.062759 0.359998 -3.020363
2011-05-17 06:42:41 51°13.714 2°55.745 18.6414 0.062759 0.359998 -3.020363
2011-05-17 06:42:46 51°13.714 2°55.744 18.6197 0.062759 0.360005 -3.020363
2011-05-17 06:42:51 51°13.713 2°55.742 18.6417 0.062759 0.360005 -3.020363
2011-05-17 06:42:56 51°13.711 2°55.739 18.6423 0.062657 0.359403 -3.020363
2011-05-17 06:43:01 51°13.71 2°55.735 18.6559 0.062657 0.359403 -3.020363
2011-05-17 06:43:06 51°13.708 2°55.731 18.6573 0.062759 0.360005 -3.020363
2011-05-17 06:43:11 51°13.707 2°55.729 18.6634 0.062759 0.360005 -3.020363
2011-05-17 06:43:18 51°13.707 2°55.73 18.6725 0.062759 0.359998 -3.020363
2011-05-17 06:43:24 51°13.709 2°55.732 18.6651 0.062657 0.359389 -3.020363
2011-05-17 06:43:28 51°13.71 2°55.733 18.662 0.062759 0.360005 -3.020363
2011-05-17 06:43:33 51°13.712 2°55.734 18.6552 0.062759 0.360005 -3.020363
2011-05-17 06:43:39 51°13.714 2°55.736 18.6157 0.062759 0.360012 -3.020363
2011-05-17 06:43:43 51°13.715 2°55.736 18.6073 0.062759 0.360012 -3.020363
2011-05-17 06:43:48 51°13.715 2°55.737 18.614 0.062657 0.359403 -3.020363
2011-05-17 06:43:53 51°13.714 2°55.737 18.5875 0.062657 0.35941 -3.020363
2011-05-17 06:43:58 51°13.713 2°55.736 18.6309 0.062657 0.35941 -3.020363
2011-05-17 06:44:03 51°13.71 2°55.736 18.6349 0.062657 0.35941 -3.020363
2011-05-17 06:44:08 51°13.707 2°55.735 18.6439 0.062759 0.360025 -3.020363
2011-05-17 06:44:12 51°13.704 2°55.735 18.6422 0.062759 0.360025 -3.020363
2011-05-17 06:44:18 51°13.7 2°55.735 18.6558 0.062759 0.360018 -3.020363
2011-05-17 06:44:23 51°13.697 2°55.734 18.6559 0.062657 0.35941 -3.020363
2011-05-17 06:44:28 51°13.694 2°55.734 18.6617 0.062657 0.35941 -3.020363
2011-05-17 06:44:33 51°13.692 2°55.734 18.6672 0.062657 0.359403 -3.020363
2011-05-17 06:44:38 51°13.692 2°55.734 18.6838 0.062759 0.360012 -3.020363
2011-05-17 06:44:43 51°13.692 2°55.734 18.6834 0.062759 0.360012 -3.020363
2011-05-17 06:44:48 51°13.695 2°55.734 18.6922 0.062759 0.360012 -3.020363
2011-05-17 06:44:53 51°13.698 2°55.733 18.6852 0.062759 0.360018 -3.020363
2011-05-17 06:44:58 51°13.702 2°55.731 18.6654 0.062657 0.359416 -3.020363
2011-05-17 06:45:03 51°13.706 2°55.73 18.6561 0.062657 0.359416 -3.020363
2011-05-17 06:45:08 51°13.71 2°55.727 18.6457 0.062657 0.359416 -3.020363
2011-05-17 06:45:13 51°13.715 2°55.724 18.6404 0.062657 0.359416 -3.020363
2011-05-17 06:45:18 51°13.72 2°55.72 18.6422 0.062759 0.360032 -3.020363
2011-05-17 06:45:23 51°13.726 2°55.716 18.6416 0.062657 0.35943 -3.020363
2011-05-17 06:45:28 51°13.732 2°55.711 18.6372 0.062759 0.360039 -3.020363
2011-05-17 06:45:32 51°13.737 2°55.707 18.6336 0.062657 0.35943 -3.020363
2011-05-17 06:45:37 51°13.743 2°55.702 18.6349 0.062759 0.360039 -3.020363
2011-05-17 06:45:42 51°13.75 2°55.697 18.6364 0.062759 0.360039 -3.020363
2011-05-17 06:45:47 51°13.758 2°55.691 18.6378 0.062657 0.35943 -3.020363
2011-05-17 06:45:52 51°13.765 2°55.684 18.6313 0.062759 0.360046 -3.020363
2011-05-17 06:45:57 51°13.773 2°55.678 18.6267 0.062657 0.359437 -3.020363
2011-05-17 06:46:02 51°13.781 2°55.671 18.6133 0.062759 0.360046 -3.020363
2011-05-17 06:46:07 51°13.79 2°55.664 18.6118 0.062657 0.359437 -3.020363
2011-05-17 06:46:12 51°13.799 2°55.657 18.6089 0.062657 0.359437 -3.020363
2011-05-17 06:46:16 51°13.806 2°55.651 18.5918 0.062657 0.359443 -3.020363
2011-05-17 06:46:21 51°13.815 2°55.645 18.595 0.062657 0.359443 -3.020363
2011-05-17 06:46:26 51°13.824 2°55.638 18.5983 0.062759 0.360052 -3.020363
2011-05-17 06:46:32 51°13.836 2°55.629 18.6002 0.062657 0.35945 -3.020363
2011-05-17 06:46:37 51°13.846 2°55.623 18.604 0.062657 0.35945 -3.020363
2011-05-17 06:46:41 51°13.853 2°55.617 18.6116 0.062657 0.35945 -3.020363
2011-05-17 06:46:47 51°13.865 2°55.609 18.614 0.062657 0.35945 -3.020363
2011-05-17 06:46:52 51°13.875 2°55.602 18.6182 0.062657 0.35945 -3.020363
2011-05-17 06:46:56 51°13.883 2°55.597 18.6213 0.062657 0.35945 -3.020363
2011-05-17 06:47:01 51°13.893 2°55.59 18.6285 0.062657 0.359457 -3.020363
2011-05-17 06:47:06 51°13.903 2°55.582 18.6371 0.062657 0.359457 -3.020363
2011-05-17 06:47:11 51°13.913 2°55.575 18.6368 0.062657 0.359457 -3.020363
2011-05-17 06:47:16 51°13.923 2°55.567 18.6296 0.062657 0.359457 -3.020363
2011-05-17 06:47:21 51°13.933 2°55.56 18.6091 0.062657 0.359457 -3.020363
2011-05-17 06:47:25 51°13.941 2°55.554 18.6293 0.062657 0.359457 -3.020363
2011-05-17 06:47:30 51°13.951 2°55.547 18.644 0.062657 0.359464 -3.020363
2011-05-17 06:47:35 51°13.961 2°55.539 18.6476 0.062657 0.359464 -3.020363
2011-05-17 06:47:41 51°13.974 2°55.531 18.6491 0.062657 0.359464 -3.020363
2011-05-17 06:47:46 51°13.984 2°55.523 18.6523 0.062657 0.359471 -3.020363
2011-05-17 06:47:51 51°13.994 2°55.516 18.6551 0.062657 0.359471 -3.020363
2011-05-17 06:47:56 51°14.004 2°55.509 18.6522 0.062657 0.359471 -3.020363
2011-05-17 06:48:02 51°14.017 2°55.5 18.6545 0.062657 0.359471 -3.020363
2011-05-17 06:48:06 51°14.025 2°55.495 18.6605 0.062657 0.359471 -3.020363
2011-05-17 06:48:11 51°14.035 2°55.488 18.6655 0.062657 0.359471 -3.020363
2011-05-17 06:48:16 51°14.045 2°55.48 18.6652 0.062657 0.359477 -3.020363
2011-05-17 06:48:22 51°14.057 2°55.472 18.6647 0.062657 0.359471 -3.020363
2011-05-17 06:48:27 51°14.067 2°55.464 18.6661 0.062657 0.359477 -3.020363
2011-05-17 06:48:33 51°14.079 2°55.455 18.6616 0.062657 0.359471 -3.020363
2011-05-17 06:48:38 51°14.089 2°55.448 18.6612 0.062657 0.359477 -3.020363
2011-05-17 06:48:43 51°14.099 2°55.441 18.6761 0.062657 0.359477 -3.020363
2011-05-17 06:48:48 51°14.109 2°55.434 18.6842 0.062657 0.359477 -3.020363
2011-05-17 06:48:53 51°14.119 2°55.426 18.6796 0.062657 0.359484 -3.020363
2011-05-17 06:48:58 51°14.128 2°55.419 18.6765 0.062657 0.359477 -3.020363
2011-05-17 06:49:03 51°14.138 2°55.411 18.6796 0.062657 0.359484 -3.020363
2011-05-17 06:49:08 51°14.148 2°55.403 18.6804 0.062657 0.359484 -3.020363
2011-05-17 06:49:13 51°14.158 2°55.396 18.6874 0.062657 0.359484 -3.020363
2011-05-17 06:49:18 51°14.168 2°55.387 18.7037 0.062657 0.359484 -3.020363
2011-05-17 06:49:22 51°14.177 2°55.38 18.6895 0.062657 0.359491 -3.020363
2011-05-17 06:49:29 51°14.192 2°55.367 18.6594 0.062657 0.359484 -3.020363
2011-05-17 06:49:34 51°14.203 2°55.358 18.6833 0.062657 0.359484 -3.020363
2011-05-17 06:49:39 51°14.215 2°55.347 18.6796 0.062657 0.359491 -3.020363
2011-05-17 06:49:43 51°14.224 2°55.339 18.6764 0.062657 0.359491 -3.020363
2011-05-17 06:49:47 51°14.233 2°55.331 18.6809 0.062657 0.359491 -3.020363
2011-05-17 06:49:54 51°14.249 2°55.316 18.6789 0.062657 0.359491 -3.020363
2011-05-17 06:49:58 51°14.259 2°55.307 18.6617 0.062657 0.359491 -3.020363
2011-05-17 06:50:03 51°14.27 2°55.296 18.6715 0.062657 0.359491 -3.020363
2011-05-17 06:50:08 51°14.282 2°55.284 18.6864 0.062657 0.359491 -3.020363
2011-05-17 06:50:13 51°14.294 2°55.272 18.6848 0.062657 0.359491 -3.020363
2011-05-17 06:50:18 51°14.305 2°55.261 18.6958 0.062657 0.359491 -3.020363
2011-05-17 06:50:23 51°14.317 2°55.248 18.6656 0.062657 0.359498 -3.020363
2011-05-17 06:50:28 51°14.33 2°55.237 18.6584 0.062657 0.359498 -3.020363
2011-05-17 06:50:33 51°14.342 2°55.224 18.6919 0.062657 0.359498 -3.020363
2011-05-17 06:50:38 51°14.354 2°55.212 18.664 0.062657 0.359498 -3.020363
2011-05-17 06:50:43 51°14.366 2°55.2 18.6533 0.062657 0.359498 -3.020363
2011-05-17 06:50:48 51°14.378 2°55.187 18.6612 0.062657 0.359504 -3.020363
2011-05-17 06:50:53 51°14.391 2°55.175 18.6633 0.062657 0.359504 -3.020363
2011-05-17 06:50:58 51°14.404 2°55.164 18.667 0.062657 0.359504 -3.020363
2011-05-17 06:51:03 51°14.416 2°55.152 18.6584 0.062657 0.359504 -3.020363
2011-05-17 06:51:08 51°14.43 2°55.14 18.6734 0.062657 0.359504 -3.020363
2011-05-17 06:51:13 51°14.442 2°55.128 18.6816 0.062657 0.359504 -3.020363
2011-05-17 06:51:18 51°14.455 2°55.115 18.6483 0.062657 0.359511 -3.020363
2011-05-17 06:51:23 51°14.468 2°55.103 18.6599 0.062657 0.359511 -3.020363
2011-05-17 06:51:28 51°14.481 2°55.09 18.6887 0.062657 0.359511 -3.020363
2011-05-17 06:51:33 51°14.493 2°55.077 18.679 0.062657 0.359511 -3.020363
2011-05-17 06:51:38 51°14.506 2°55.063 18.6531 0.062657 0.359518 -3.020363
2011-05-17 06:51:43 51°14.519 2°55.049 18.6581 0.062657 0.359518 -3.020363
2011-05-17 06:51:48 51°14.531 2°55.033 18.6965 0.062657 0.359518 -3.020363
2011-05-17 06:51:53 51°14.542 2°55.015 18.6596 0.062657 0.359525 -3.020363
2011-05-17 06:51:58 51°14.553 2°54.996 18.5914 0.062657 0.359525 -3.020363
2011-05-17 06:52:03 51°14.564 2°54.978 18.6108 0.062657 0.359511 -3.020363
2011-05-17 06:52:08 51°14.577 2°54.961 18.5704 0.062657 0.359511 -3.020363
2011-05-17 06:52:13 51°14.589 2°54.945 18.6139 0.062657 0.359511 -3.020363
2011-05-17 06:52:18 51°14.602 2°54.928 18.6215 0.062657 0.359511 -3.020363
2011-05-17 06:52:23 51°14.615 2°54.912 18.6224 0.062657 0.359511 -3.020363
2011-05-17 06:52:28 51°14.629 2°54.897 18.6202 0.062657 0.359511 -3.020363
2011-05-17 06:52:32 51°14.639 2°54.884 18.6262 0.062657 0.359504 -3.020363
2011-05-17 06:52:37 51°14.653 2°54.869 18.6407 0.062657 0.359511 -3.020363
2011-05-17 06:52:42 51°14.667 2°54.853 18.6149 0.062657 0.359511 -3.020363
2011-05-17 06:52:47 51°14.68 2°54.837 18.6323 0.062657 0.359518 -3.020363
2011-05-17 06:52:52 51°14.694 2°54.821 18.6406 0.062657 0.359518 -3.020363
2011-05-17 06:52:56 51°14.705 2°54.809 18.6066 0.062657 0.359525 -3.020363
2011-05-17 06:53:02 51°14.721 2°54.788 18.6235 0.062657 0.359525 -3.020363
2011-05-17 06:53:07 51°14.735 2°54.771 18.634 0.062657 0.359525 -3.020363
2011-05-17 06:53:12 51°14.748 2°54.753 18.5969 0.062657 0.359525 -3.020363
2011-05-17 06:53:16 51°14.759 2°54.739 18.5943 0.062657 0.359532 -3.020363
2011-05-17 06:53:21 51°14.773 2°54.721 18.6089 0.062657 0.359532 -3.020363
2011-05-17 06:53:26 51°14.786 2°54.703 18.6215 0.062657 0.359532 -3.020363
2011-05-17 06:53:31 51°14.799 2°54.686 18.5895 0.062657 0.359532 -3.020363
2011-05-17 06:53:36 51°14.813 2°54.669 18.6156 0.062657 0.359532 -3.020363
2011-05-17 06:53:41 51°14.827 2°54.653 18.6218 0.062657 0.359532 -3.020363
2011-05-17 06:53:45 51°14.838 2°54.639 18.6031 0.062657 0.359532 -3.020363
2011-05-17 06:53:51 51°14.855 2°54.62 18.5795 0.062657 0.359532 -3.020363
2011-05-17 06:53:56 51°14.869 2°54.605 18.6107 0.062657 0.359532 -3.020363
2011-05-17 06:54:01 51°14.884 2°54.589 18.5948 0.062657 0.359532 -3.020363
2011-05-17 06:54:05 51°14.895 2°54.576 18.5658 0.062657 0.359538 -3.020363
2011-05-17 06:54:11 51°14.912 2°54.558 18.6081 0.062657 0.359538 -3.020363
2011-05-17 06:54:16 51°14.927 2°54.543 18.5737 0.062657 0.359538 -3.020363
2011-05-17 06:54:21 51°14.94 2°54.527 18.5912 0.062657 0.359545 -3.020363
2011-05-17 06:54:25 51°14.952 2°54.515 18.5917 0.062657 0.359552 -3.020363
2011-05-17 06:54:30 51°14.966 2°54.498 18.5891 0.062657 0.359559 -3.020363
2011-05-17 06:54:35 51°14.98 2°54.483 18.6027 0.062657 0.359559 -3.020363
2011-05-17 06:54:40 51°14.994 2°54.466 18.5964 0.062657 0.359559 -3.020363
2011-05-17 06:54:45 51°15.007 2°54.45 18.6016 0.062657 0.359545 -3.020363
2011-05-17 06:54:49 51°15.018 2°54.436 18.5765 0.062657 0.359545 -3.020363
2011-05-17 06:54:55 51°15.034 2°54.414 18.5917 0.062657 0.359538 -3.020363
2011-05-17 06:55:00 51°15.046 2°54.396 18.5818 0.062657 0.359545 -3.020363
2011-05-17 06:55:05 51°15.059 2°54.377 18.5956 0.062657 0.359552 -3.020363
2011-05-17 06:55:09 51°15.069 2°54.361 18.5814 0.062657 0.359552 -3.020363
2011-05-17 06:55:14 51°15.081 2°54.342 18.569 0.062657 0.359559 -3.020363
2011-05-17 06:55:20 51°15.096 2°54.319 18.5751 0.062657 0.359572 -3.020363
2011-05-17 06:55:25 51°15.108 2°54.3 18.5767 0.062657 0.359572 -3.020363
2011-05-17 06:55:30 51°15.12 2°54.28 18.5603 0.062657 0.359572 -3.020363
2011-05-17 06:55:35 51°15.133 2°54.261 18.5656 0.062657 0.359579 -3.020363
2011-05-17 06:55:40 51°15.146 2°54.242 18.5608 0.062657 0.359579 -3.020363
2011-05-17 06:55:45 51°15.158 2°54.224 18.5933 0.062657 0.359572 -3.020363
2011-05-17 06:55:49 51°15.168 2°54.209 18.5541 0.062657 0.359572 -3.020363
2011-05-17 06:55:55 51°15.183 2°54.186 18.5813 0.062657 0.359572 -3.020363
2011-05-17 06:56:00 51°15.196 2°54.169 18.5709 0.062657 0.359572 -3.020363
2011-05-17 06:56:05 51°15.209 2°54.151 18.5829 0.062657 0.359566 -3.020363
2011-05-17 06:56:09 51°15.22 2°54.137 18.5537 0.062657 0.359566 -3.020363
2011-05-17 06:56:15 51°15.236 2°54.117 18.5441 0.062657 0.359566 -3.020363
2011-05-17 06:56:20 51°15.249 2°54.099 18.5698 0.062657 0.359566 -3.020363
2011-05-17 06:56:25 51°15.262 2°54.083 18.5837 0.062657 0.359572 -3.020363
2011-05-17 06:56:30 51°15.276 2°54.066 18.5817 0.062657 0.359579 -3.020363
2011-05-17 06:56:35 51°15.289 2°54.049 18.5715 0.062657 0.359586 -3.020363
2011-05-17 06:56:40 51°15.302 2°54.031 18.5797 0.062657 0.359586 -3.020363
2011-05-17 06:56:45 51°15.315 2°54.014 18.5809 0.062657 0.359593 -3.020363
2011-05-17 06:56:49 51°15.326 2°54 18.586 0.062657 0.359606 -3.020363
2011-05-17 06:56:55 51°15.342 2°53.978 18.592 0.062657 0.359606 -3.020363
2011-05-17 06:57:00 51°15.355 2°53.961 18.5724 0.062657 0.359613 -3.020363
2011-05-17 06:57:05 51°15.368 2°53.944 18.5953 0.062657 0.359606 -3.020363
2011-05-17 06:57:09 51°15.378 2°53.929 18.5833 0.062657 0.359606 -3.020363
2011-05-17 06:57:14 51°15.391 2°53.912 18.5706 0.062657 0.359593 -3.020363
2011-05-17 06:57:20 51°15.407 2°53.89 18.587 0.062657 0.359566 -3.020363
2011-05-17 06:57:25 51°15.42 2°53.872 18.5709 0.062657 0.359552 -3.020363
2011-05-17 06:57:30 51°15.433 2°53.854 18.5801 0.062657 0.359552 -3.020363
2011-05-17 06:57:34 51°15.443 2°53.84 18.5641 0.062657 0.359559 -3.020363
2011-05-17 06:57:40 51°15.459 2°53.819 18.5654 0.062657 0.359559 -3.020363
2011-05-17 06:57:45 51°15.473 2°53.802 18.5856 0.062657 0.359566 -3.020363
2011-05-17 06:57:49 51°15.484 2°53.789 18.5667 0.062657 0.359586 -3.020363
2011-05-17 06:57:55 51°15.501 2°53.769 18.5764 0.062657 0.3596 -3.020363
2011-05-17 06:58:00 51°15.515 2°53.753 18.5777 0.062657 0.359613 -3.020363
2011-05-17 06:58:05 51°15.528 2°53.736 18.5876 0.062657 0.35962 -3.020363
2011-05-17 06:58:09 51°15.539 2°53.722 18.5869 0.062657 0.35962 -3.020363
2011-05-17 06:58:15 51°15.555 2°53.702 18.5695 0.062657 0.359627 -3.020363
2011-05-17 06:58:20 51°15.569 2°53.685 18.583 0.062657 0.359627 -3.020363
2011-05-17 06:58:25 51°15.583 2°53.668 18.5603 0.062657 0.359633 -3.020363
2011-05-17 06:58:30 51°15.597 2°53.651 18.5864 0.062657 0.359627 -3.020363
2011-05-17 06:58:35 51°15.611 2°53.635 18.5815 0.062657 0.359627 -3.020363
2011-05-17 06:58:40 51°15.625 2°53.618 18.5894 0.062657 0.359627 -3.020363
2011-05-17 06:58:45 51°15.639 2°53.603 18.5761 0.062657 0.35962 -3.020363
2011-05-17 06:58:50 51°15.654 2°53.588 18.5855 0.062657 0.359613 -3.020363
2011-05-17 06:58:55 51°15.668 2°53.573 18.5851 0.062657 0.359613 -3.020363
2011-05-17 06:59:00 51°15.683 2°53.558 18.5875 0.062657 0.359606 -3.020363
2011-05-17 06:59:05 51°15.698 2°53.545 18.5715 0.062657 0.359606 -3.020363
2011-05-17 06:59:09 51°15.709 2°53.533 18.588 0.062657 0.359606 -3.020363
2011-05-17 06:59:15 51°15.727 2°53.517 18.5738 0.062657 0.359613 -3.020363
2011-05-17 06:59:20 51°15.742 2°53.503 18.5753 0.062657 0.359613 -3.020363
2011-05-17 06:59:25 51°15.757 2°53.489 18.5932 0.062657 0.35962 -3.020363
2011-05-17 06:59:29 51°15.769 2°53.478 18.5764 0.062657 0.35962 -3.020363
2011-05-17 06:59:35 51°15.787 2°53.462 18.6083 0.062657 0.359627 -3.020363
2011-05-17 06:59:40 51°15.802 2°53.449 18.5811 0.062657 0.359627 -3.020363
2011-05-17 06:59:45 51°15.817 2°53.435 18.5946 0.062657 0.359627 -3.020363
2011-05-17 06:59:49 51°15.829 2°53.424 18.6002 0.062657 0.359627 -3.020363
2011-05-17 06:59:54 51°15.844 2°53.41 18.5847 0.062657 0.359627 -3.020363
2011-05-17 07:00:00 51°15.861 2°53.394 18.5909 0.062657 0.359627 -3.020363
2011-05-17 07:00:05 51°15.876 2°53.38 18.5811 0.062657 0.35962 -3.020363
2011-05-17 07:00:09 51°15.888 2°53.369 18.5804 0.062657 0.35962 -3.020363
2011-05-17 07:00:15 51°15.906 2°53.353 18.601 0.062657 0.35962 -3.020363
2011-05-17 07:00:20 51°15.92 2°53.339 18.5795 0.062657 0.35962 -3.020363
2011-05-17 07:00:25 51°15.935 2°53.325 18.5858 0.062657 0.359613 -3.020363
2011-05-17 07:00:29 51°15.947 2°53.314 18.5865 0.062657 0.359613 -3.020363
2011-05-17 07:00:35 51°15.964 2°53.297 18.5788 0.062657 0.359613 -3.020363
2011-05-17 07:00:40 51°15.979 2°53.283 18.599 0.062657 0.359613 -3.020363
2011-05-17 07:00:45 51°15.993 2°53.27 18.5864 0.062657 0.35962 -3.020363
2011-05-17 07:00:49 51°16.005 2°53.258 18.599 0.062657 0.35962 -3.020363
2011-05-17 07:00:55 51°16.022 2°53.241 18.5864 0.062657 0.35962 -3.020363
2011-05-17 07:01:00 51°16.037 2°53.227 18.5949 0.062657 0.35962 -3.020363
2011-05-17 07:01:05 51°16.051 2°53.212 18.6029 0.062657 0.359627 -3.020363
2011-05-17 07:01:09 51°16.063 2°53.2 18.5902 0.062657 0.359627 -3.020363
2011-05-17 07:01:15 51°16.08 2°53.182 18.5981 0.062657 0.359627 -3.020363
2011-05-17 07:01:20 51°16.094 2°53.167 18.5992 0.062657 0.359627 -3.020363
2011-05-17 07:01:25 51°16.109 2°53.152 18.595 0.062657 0.359627 -3.020363
2011-05-17 07:01:29 51°16.12 2°53.141 18.6045 0.062657 0.359627 -3.020363
2011-05-17 07:01:35 51°16.138 2°53.124 18.5987 0.062657 0.359627 -3.020363
2011-05-17 07:01:40 51°16.152 2°53.11 18.6033 0.062657 0.359627 -3.020363
2011-05-17 07:01:45 51°16.167 2°53.096 18.5932 0.062657 0.35962 -3.020363
2011-05-17 07:01:49 51°16.179 2°53.085 18.5932 0.062657 0.35962 -3.020363
2011-05-17 07:01:54 51°16.194 2°53.071 18.6094 0.062657 0.35962 -3.020363
2011-05-17 07:02:00 51°16.211 2°53.055 18.6031 0.062657 0.35962 -3.020363
2011-05-17 07:02:05 51°16.226 2°53.043 18.5985 0.062657 0.35962 -3.020363
2011-05-17 07:02:09 51°16.238 2°53.032 18.6075 0.062657 0.35962 -3.020363
2011-05-17 07:02:14 51°16.253 2°53.02 18.5945 0.062657 0.35962 -3.020363
2011-05-17 07:02:19 51°16.268 2°53.008 18.5944 0.062657 0.359627 -3.020363
2011-05-17 07:02:25 51°16.287 2°52.994 18.6033 0.062657 0.359633 -3.020363
2011-05-17 07:02:29 51°16.299 2°52.985 18.6074 0.062657 0.359633 -3.020363
2011-05-17 07:02:34 51°16.315 2°52.974 18.607 0.062657 0.35964 -3.020363
2011-05-17 07:02:39 51°16.33 2°52.963 18.6015 0.062657 0.35964 -3.020363
2011-05-17 07:02:45 51°16.349 2°52.95 18.6012 0.062657 0.359647 -3.020363
2011-05-17 07:02:49 51°16.361 2°52.941 18.6127 0.062657 0.35964 -3.020363
2011-05-17 07:02:54 51°16.377 2°52.931 18.5945 0.062657 0.359647 -3.020363
2011-05-17 07:02:59 51°16.392 2°52.92 18.6183 0.062657 0.35964 -3.020363
2011-05-17 07:03:05 51°16.411 2°52.908 18.6107 0.062657 0.35964 -3.020363
2011-05-17 07:03:09 51°16.424 2°52.9 18.6105 0.062657 0.35964 -3.020363
2011-05-17 07:03:14 51°16.439 2°52.89 18.6214 0.062657 0.35964 -3.020363
2011-05-17 07:03:20 51°16.458 2°52.877 18.606 0.062657 0.359633 -3.020363
2011-05-17 07:03:25 51°16.473 2°52.867 18.6197 0.062657 0.35964 -3.020363
2011-05-17 07:03:29 51°16.486 2°52.858 18.6201 0.062657 0.359633 -3.020363
2011-05-17 07:03:34 51°16.501 2°52.848 18.6181 0.062657 0.359633 -3.020363
2011-05-17 07:03:40 51°16.52 2°52.835 18.6051 0.062657 0.359633 -3.020363
2011-05-17 07:03:45 51°16.535 2°52.824 18.623 0.062657 0.35964 -3.020363
2011-05-17 07:03:49 51°16.547 2°52.815 18.6187 0.062657 0.359633 -3.020363
2011-05-17 07:03:54 51°16.563 2°52.805 18.6221 0.062657 0.359633 -3.020363
2011-05-17 07:03:59 51°16.578 2°52.794 18.6173 0.062657 0.359627 -3.020363
2011-05-17 07:04:05 51°16.596 2°52.781 18.6202 0.062657 0.359627 -3.020363
2011-05-17 07:04:09 51°16.608 2°52.772 18.627 0.062657 0.359627 -3.020363
2011-05-17 07:04:14 51°16.624 2°52.761 18.6091 0.062657 0.359627 -3.020363
2011-05-17 07:04:20 51°16.642 2°52.748 18.6247 0.062657 0.359627 -3.020363
2011-05-17 07:04:25 51°16.657 2°52.738 18.6101 0.062657 0.359627 -3.020363
2011-05-17 07:04:29 51°16.669 2°52.729 18.6111 0.062657 0.359627 -3.020363
2011-05-17 07:04:35 51°16.688 2°52.716 18.6221 0.062657 0.359627 -3.020363
2011-05-17 07:04:39 51°16.7 2°52.707 18.6271 0.062657 0.359627 -3.020363
2011-05-17 07:04:45 51°16.719 2°52.695 18.6251 0.062657 0.359627 -3.020363
2011-05-17 07:04:49 51°16.731 2°52.687 18.6415 0.062657 0.359627 -3.020363
2011-05-17 07:04:54 51°16.746 2°52.677 18.6189 0.062657 0.359633 -3.020363
2011-05-17 07:04:59 51°16.761 2°52.665 18.6353 0.062657 0.359633 -3.020363
2011-05-17 07:05:04 51°16.776 2°52.655 18.6184 0.062657 0.359633 -3.020363
2011-05-17 07:05:09 51°16.79 2°52.644 18.6293 0.062657 0.359633 -3.020363
2011-05-17 07:05:14 51°16.805 2°52.636 18.6313 0.062657 0.359633 -3.020363
2011-05-17 07:05:20 51°16.824 2°52.626 18.6255 0.062657 0.359633 -3.020363
2011-05-17 07:05:25 51°16.839 2°52.62 18.6221 0.062657 0.359627 -3.020363
2011-05-17 07:05:29 51°16.852 2°52.615 18.6288 0.062657 0.359627 -3.020363
2011-05-17 07:05:35 51°16.871 2°52.608 18.6261 0.062657 0.359627 -3.020363
2011-05-17 07:05:40 51°16.886 2°52.603 18.6223 0.062657 0.359627 -3.020363
2011-05-17 07:05:45 51°16.902 2°52.599 18.6472 0.062657 0.359627 -3.020363
2011-05-17 07:05:49 51°16.915 2°52.596 18.624 0.062657 0.359633 -3.020363
2011-05-17 07:05:54 51°16.931 2°52.592 18.6492 0.062657 0.359633 -3.020363
2011-05-17 07:06:00 51°16.95 2°52.589 18.6496 0.062657 0.359633 -3.020363
2011-05-17 07:06:05 51°16.965 2°52.585 18.6357 0.062657 0.359633 -3.020363
2011-05-17 07:06:09 51°16.978 2°52.582 18.6369 0.062657 0.359633 -3.020363
2011-05-17 07:06:13 51°16.991 2°52.579 18.6403 0.062657 0.359627 -3.020363
2011-05-17 07:06:20 51°17.013 2°52.574 18.6467 0.062657 0.359627 -3.020363
2011-05-17 07:06:25 51°17.029 2°52.57 18.6481 0.062657 0.35962 -3.020363
2011-05-17 07:06:29 51°17.042 2°52.567 18.6414 0.062657 0.35962 -3.020363
2011-05-17 07:06:34 51°17.058 2°52.564 18.6375 0.062657 0.35962 -3.020363
2011-05-17 07:06:39 51°17.073 2°52.559 18.6405 0.062657 0.35962 -3.020363
2011-05-17 07:06:45 51°17.092 2°52.554 18.6366 0.062657 0.359613 -3.020363
2011-05-17 07:06:49 51°17.105 2°52.551 18.6435 0.062657 0.359606 -3.020363
2011-05-17 07:06:53 51°17.117 2°52.548 18.6503 0.062657 0.359613 -3.020363
2011-05-17 07:06:59 51°17.136 2°52.542 18.6537 0.062657 0.359613 -3.020363
2011-05-17 07:07:05 51°17.155 2°52.537 18.6575 0.062657 0.35962 -3.020363
2011-05-17 07:07:09 51°17.168 2°52.532 18.6447 0.062657 0.35962 -3.020363
2011-05-17 07:07:15 51°17.187 2°52.526 18.6515 0.062657 0.359627 -3.020363
2011-05-17 07:07:19 51°17.199 2°52.521 18.6486 0.062657 0.359633 -3.020363
2011-05-17 07:07:24 51°17.215 2°52.515 18.6579 0.062657 0.35964 -3.020363
2011-05-17 07:07:29 51°17.231 2°52.51 18.6484 0.062657 0.359647 -3.020363
2011-05-17 07:07:34 51°17.247 2°52.504 18.6505 0.062657 0.359661 -3.020363
2011-05-17 07:07:40 51°17.266 2°52.498 18.6414 0.062657 0.359661 -3.020363
2011-05-17 07:07:45 51°17.282 2°52.494 18.6391 0.062657 0.359647 -3.020363
2011-05-17 07:07:49 51°17.294 2°52.494 18.6357 0.062657 0.359647 -3.020363
2011-05-17 07:07:55 51°17.313 2°52.495 18.6451 0.062657 0.35964 -3.020363
2011-05-17 07:08:00 51°17.329 2°52.5 18.656 0.062657 0.35964 -3.020363
2011-05-17 07:08:05 51°17.344 2°52.506 18.6424 0.062657 0.35964 -3.020363
2011-05-17 07:08:09 51°17.356 2°52.512 18.6563 0.062657 0.35964 -3.020363
2011-05-17 07:08:14 51°17.37 2°52.521 18.6487 0.062657 0.35964 -3.020363
2011-05-17 07:08:20 51°17.388 2°52.53 18.6628 0.062657 0.35964 -3.020363
2011-05-17 07:08:25 51°17.403 2°52.54 18.6635 0.062657 0.359647 -3.020363
2011-05-17 07:08:29 51°17.415 2°52.546 18.6618 0.062657 0.359633 -3.020363
2011-05-17 07:08:33 51°17.426 2°52.554 18.6616 0.062657 0.35964 -3.020363
2011-05-17 07:08:40 51°17.447 2°52.568 18.6648 0.062657 0.35964 -3.020363
2011-05-17 07:08:45 51°17.46 2°52.58 18.6615 0.062657 0.359627 -3.020363
2011-05-17 07:08:49 51°17.472 2°52.587 18.6688 0.062657 0.359627 -3.020363
2011-05-17 07:08:54 51°17.486 2°52.598 18.6766 0.062657 0.359627 -3.020363
2011-05-17 07:09:00 51°17.503 2°52.612 18.654 0.062657 0.359627 -3.020363
2011-05-17 07:09:05 51°17.517 2°52.621 18.6679 0.062657 0.35962 -3.020363
2011-05-17 07:09:09 51°17.528 2°52.631 18.6638 0.062657 0.35962 -3.020363
2011-05-17 07:09:13 51°17.54 2°52.639 18.6688 0.062657 0.35962 -3.020363
2011-05-17 07:09:19 51°17.556 2°52.652 18.659 0.062657 0.359627 -3.020363
2011-05-17 07:09:24 51°17.57 2°52.663 18.6662 0.062657 0.35962 -3.020363
2011-05-17 07:09:29 51°17.584 2°52.675 18.6822 0.062657 0.359633 -3.020363
2011-05-17 07:09:35 51°17.601 2°52.688 18.6625 0.062657 0.359627 -3.020363
2011-05-17 07:09:39 51°17.613 2°52.697 18.685 0.062657 0.359627 -3.020363
2011-05-17 07:09:44 51°17.626 2°52.71 18.657 0.062657 0.35964 -3.020363
2011-05-17 07:09:49 51°17.64 2°52.721 18.6785 0.062657 0.359633 -3.020363
2011-05-17 07:09:54 51°17.654 2°52.735 18.6789 0.062657 0.35964 -3.020363
2011-05-17 07:10:00 51°17.669 2°52.751 18.6729 0.062657 0.359647 -3.020363
2011-05-17 07:10:05 51°17.683 2°52.766 18.6742 0.062657 0.35964 -3.020363
2011-05-17 07:10:09 51°17.694 2°52.776 18.6866 0.062657 0.35964 -3.020363
2011-05-17 07:10:14 51°17.706 2°52.792 18.676 0.062657 0.359647 -3.020363
2011-05-17 07:10:20 51°17.722 2°52.809 18.6848 0.062657 0.35964 -3.020363
2011-05-17 07:10:25 51°17.734 2°52.824 18.6794 0.062657 0.35964 -3.020363
2011-05-17 07:10:29 51°17.744 2°52.836 18.6748 0.062657 0.359633 -3.020363
2011-05-17 07:10:34 51°17.757 2°52.851 18.6687 0.062657 0.359627 -3.020363
2011-05-17 07:10:39 51°17.769 2°52.867 18.6735 0.062657 0.359627 -3.020363
2011-05-17 07:10:45 51°17.784 2°52.887 18.6865 0.062657 0.35962 -3.020363
2011-05-17 07:10:49 51°17.793 2°52.901 18.6869 0.062657 0.359613 -3.020363
2011-05-17 07:10:54 51°17.804 2°52.918 18.6849 0.062657 0.359613 -3.020363
2011-05-17 07:11:00 51°17.818 2°52.938 18.6946 0.062657 0.35962 -3.020363
2011-05-17 07:11:05 51°17.83 2°52.955 18.6787 0.062657 0.359613 -3.020363
2011-05-17 07:11:09 51°17.84 2°52.968 18.695 0.062657 0.359613 -3.020363
2011-05-17 07:11:13 51°17.849 2°52.981 18.6924 0.062657 0.359613 -3.020363
2011-05-17 07:11:19 51°17.863 2°53.001 18.6781 0.062657 0.35962 -3.020363
2011-05-17 07:11:25 51°17.879 2°53.02 18.7008 0.062657 0.359613 -3.020363
2011-05-17 07:11:29 51°17.888 2°53.033 18.6966 0.062657 0.359613 -3.020363
2011-05-17 07:11:35 51°17.903 2°53.051 18.704 0.062657 0.35962 -3.020363
2011-05-17 07:11:39 51°17.913 2°53.064 18.6992 0.062657 0.35962 -3.020363
2011-05-17 07:11:44 51°17.926 2°53.079 18.6975 0.062657 0.35962 -3.020363
2011-05-17 07:11:49 51°17.938 2°53.094 18.7052 0.062657 0.359613 -3.020363
2011-05-17 07:11:54 51°17.951 2°53.11 18.6977 0.062657 0.35962 -3.020363
2011-05-17 07:12:00 51°17.967 2°53.127 18.7032 0.062657 0.359613 -3.020363
2011-05-17 07:12:05 51°17.979 2°53.143 18.6891 0.062657 0.359606 -3.020363
2011-05-17 07:12:09 51°17.989 2°53.155 18.6938 0.062657 0.359606 -3.020363
2011-05-17 07:12:15 51°18.004 2°53.174 18.6977 0.062657 0.3596 -3.020363
2011-05-17 07:12:20 51°18.016 2°53.19 18.7137 0.062657 0.359593 -3.020363
2011-05-17 07:12:25 51°18.027 2°53.207 18.6914 0.062657 0.3596 -3.020363
2011-05-17 07:12:29 51°18.037 2°53.219 18.7119 0.062657 0.3596 -3.020363
2011-05-17 07:12:34 51°18.049 2°53.236 18.7053 0.062657 0.359606 -3.020363
2011-05-17 07:12:40 51°18.063 2°53.254 18.713 0.062657 0.359606 -3.020363
2011-05-17 07:12:45 51°18.075 2°53.271 18.7059 0.062657 0.359606 -3.020363
2011-05-17 07:12:49 51°18.085 2°53.283 18.7203 0.062657 0.359606 -3.020363
2011-05-17 07:12:54 51°18.097 2°53.299 18.7005 0.062657 0.35962 -3.020363
2011-05-17 07:13:00 51°18.112 2°53.316 18.7139 0.062657 0.35962 -3.020363
2011-05-17 07:13:05 51°18.124 2°53.333 18.7022 0.062657 0.359613 -3.020363
2011-05-17 07:13:09 51°18.135 2°53.344 18.7109 0.062657 0.359613 -3.020363
2011-05-17 07:13:14 51°18.147 2°53.361 18.709 0.062657 0.359613 -3.020363
2011-05-17 07:13:20 51°18.161 2°53.38 18.7247 0.062657 0.359606 -3.020363
2011-05-17 07:13:25 51°18.174 2°53.396 18.7197 0.062657 0.359606 -3.020363
2011-05-17 07:13:29 51°18.183 2°53.409 18.7137 0.062657 0.359606 -3.020363
2011-05-17 07:13:33 51°18.193 2°53.421 18.7234 0.062657 0.3596 -3.020363
2011-05-17 07:13:39 51°18.208 2°53.44 18.7194 0.062657 0.3596 -3.020363
2011-05-17 07:13:45 51°18.223 2°53.458 18.725 0.062657 0.359593 -3.020363
2011-05-17 07:13:49 51°18.233 2°53.471 18.7129 0.062657 0.359593 -3.020363
2011-05-17 07:13:55 51°18.248 2°53.489 18.7226 0.062657 0.359593 -3.020363
2011-05-17 07:13:59 51°18.257 2°53.502 18.7083 0.062657 0.3596 -3.020363
2011-05-17 07:14:04 51°18.27 2°53.516 18.7263 0.062657 0.359593 -3.020363
2011-05-17 07:14:09 51°18.282 2°53.532 18.7187 0.062657 0.359593 -3.020363
2011-05-17 07:14:14 51°18.295 2°53.546 18.7145 0.062657 0.3596 -3.020363
2011-05-17 07:14:20 51°18.309 2°53.565 18.7334 0.062657 0.3596 -3.020363
2011-05-17 07:14:25 51°18.321 2°53.581 18.7341 0.062657 0.359606 -3.020363
2011-05-17 07:14:29 51°18.332 2°53.593 18.7374 0.062657 0.359606 -3.020363
2011-05-17 07:14:35 51°18.346 2°53.611 18.7296 0.062657 0.3596 -3.020363
2011-05-17 07:14:40 51°18.359 2°53.625 18.7296 0.062657 0.3596 -3.020363
2011-05-17 07:14:45 51°18.372 2°53.64 18.7346 0.062657 0.3596 -3.020363
2011-05-17 07:14:49 51°18.382 2°53.651 18.739 0.062657 0.3596 -3.020363
2011-05-17 07:14:54 51°18.395 2°53.666 18.7361 0.062657 0.359593 -3.020363
2011-05-17 07:15:00 51°18.411 2°53.683 18.7263 0.062657 0.359586 -3.020363
2011-05-17 07:15:05 51°18.423 2°53.698 18.7328 0.062657 0.359579 -3.020363
2011-05-17 07:15:09 51°18.433 2°53.71 18.7182 0.062657 0.359579 -3.020363
2011-05-17 07:15:13 51°18.443 2°53.722 18.7281 0.062657 0.359566 -3.020363
2011-05-17 07:15:20 51°18.459 2°53.747 18.7232 0.062657 0.359566 -3.020363
2011-05-17 07:15:25 51°18.47 2°53.765 18.7309 0.062657 0.359566 -3.020363
2011-05-17 07:15:29 51°18.478 2°53.78 18.737 0.062657 0.359566 -3.020363
2011-05-17 07:15:34 51°18.489 2°53.798 18.7482 0.062657 0.359586 -3.020363
2011-05-17 07:15:39 51°18.499 2°53.817 18.7411 0.062657 0.359586 -3.020363
2011-05-17 07:15:45 51°18.511 2°53.84 18.7387 0.062657 0.359586 -3.020363
2011-05-17 07:15:49 51°18.52 2°53.855 18.7394 0.062657 0.359586 -3.020363
2011-05-17 07:15:53 51°18.528 2°53.871 18.7262 0.062657 0.359593 -3.020363
2011-05-17 07:15:59 51°18.541 2°53.894 18.7518 0.062657 0.359593 -3.020363
2011-05-17 07:16:05 51°18.553 2°53.918 18.7546 0.062657 0.359593 -3.020363
2011-05-17 07:16:09 51°18.562 2°53.933 18.7521 0.062657 0.359593 -3.020363
2011-05-17 07:16:15 51°18.575 2°53.956 18.7471 0.062657 0.3596 -3.020363
2011-05-17 07:16:19 51°18.583 2°53.971 18.7462 0.062657 0.359593 -3.020363
2011-05-17 07:16:24 51°18.594 2°53.989 18.7441 0.062657 0.359593 -3.020363
2011-05-17 07:16:29 51°18.605 2°54.007 18.746 0.062657 0.359593 -3.020363
2011-05-17 07:16:34 51°18.617 2°54.025 18.7412 0.062657 0.359586 -3.020363
2011-05-17 07:16:40 51°18.63 2°54.047 18.7297 0.062657 0.359586 -3.020363
2011-05-17 07:16:45 51°18.641 2°54.066 18.7447 0.062657 0.359579 -3.020363
2011-05-17 07:16:49 51°18.649 2°54.081 18.7538 0.062657 0.359566 -3.020363
2011-05-17 07:16:54 51°18.659 2°54.101 18.7452 0.062657 0.359566 -3.020363
2011-05-17 07:17:00 51°18.672 2°54.123 18.7585 0.062657 0.359566 -3.020363
2011-05-17 07:17:05 51°18.682 2°54.143 18.7507 0.062657 0.359559 -3.020363
2011-05-17 07:17:09 51°18.69 2°54.158 18.766 0.062657 0.359559 -3.020363
2011-05-17 07:17:14 51°18.7 2°54.178 18.7647 0.062657 0.359559 -3.020363
2011-05-17 07:17:20 51°18.713 2°54.201 18.7639 0.062657 0.359572 -3.020363
2011-05-17 07:17:25 51°18.724 2°54.219 18.7386 0.062657 0.359566 -3.020363
2011-05-17 07:17:29 51°18.732 2°54.234 18.763 0.062657 0.359572 -3.020363
2011-05-17 07:17:33 51°18.74 2°54.25 18.7448 0.062657 0.359579 -3.020363
2011-05-17 07:17:40 51°18.754 2°54.277 18.7585 0.062657 0.359579 -3.020363
2011-05-17 07:17:45 51°18.764 2°54.296 18.7721 0.062657 0.359579 -3.020363
2011-05-17 07:17:49 51°18.772 2°54.312 18.7708 0.062657 0.359579 -3.020363
2011-05-17 07:17:54 51°18.782 2°54.331 18.7681 0.062657 0.359579 -3.020363
2011-05-17 07:17:59 51°18.792 2°54.35 18.7559 0.062657 0.359572 -3.020363
2011-05-17 07:18:05 51°18.805 2°54.372 18.7658 0.062657 0.359572 -3.020363
2011-05-17 07:18:09 51°18.813 2°54.388 18.7602 0.062657 0.359572 -3.020363
2011-05-17 07:18:13 51°18.821 2°54.402 18.7697 0.062657 0.359566 -3.020363
2011-05-17 07:18:19 51°18.833 2°54.425 18.7694 0.062657 0.359559 -3.020363
2011-05-17 07:18:25 51°18.845 2°54.448 18.7721 0.062657 0.359559 -3.020363
2011-05-17 07:18:29 51°18.852 2°54.464 18.764 0.062657 0.359559 -3.020363
2011-05-17 07:18:34 51°18.862 2°54.483 18.7625 0.062657 0.359545 -3.020363
2011-05-17 07:18:39 51°18.871 2°54.504 18.7649 0.062657 0.359545 -3.020363
2011-05-17 07:18:45 51°18.881 2°54.529 18.7577 0.062657 0.359552 -3.020363
2011-05-17 07:18:49 51°18.888 2°54.547 18.7902 0.062657 0.359538 -3.020363
2011-05-17 07:18:55 51°18.896 2°54.574 18.7568 0.062657 0.359559 -3.020363
2011-05-17 07:18:59 51°18.903 2°54.59 18.7794 0.062657 0.359552 -3.020363
2011-05-17 07:19:04 51°18.91 2°54.614 18.7741 0.062657 0.359559 -3.020363
2011-05-17 07:19:09 51°18.918 2°54.635 18.7961 0.062657 0.359559 -3.020363
2011-05-17 07:19:15 51°18.926 2°54.663 18.7722 0.062657 0.359566 -3.020363
2011-05-17 07:19:19 51°18.934 2°54.68 18.7843 0.062657 0.359566 -3.020363
2011-05-17 07:19:25 51°18.942 2°54.707 18.7828 0.062657 0.359566 -3.020363
2011-05-17 07:19:29 51°18.948 2°54.724 18.7992 0.062657 0.359572 -3.020363
2011-05-17 07:19:34 51°18.954 2°54.747 18.7823 0.062657 0.359572 -3.020363
2011-05-17 07:19:39 51°18.962 2°54.769 18.7784 0.062657 0.359572 -3.020363
2011-05-17 07:19:45 51°18.97 2°54.795 18.7798 0.062759 0.360182 -3.020363
2011-05-17 07:19:49 51°18.976 2°54.813 18.7886 0.062759 0.360175 -3.020363
2011-05-17 07:19:54 51°18.983 2°54.835 18.7833 0.062657 0.359559 -3.020363
2011-05-17 07:19:59 51°18.991 2°54.857 18.7934 0.062657 0.359545 -3.020363
2011-05-17 07:20:05 51°18.998 2°54.884 18.7949 0.062657 0.359538 -3.020363
2011-05-17 07:20:09 51°19.004 2°54.901 18.7888 0.062657 0.359538 -3.020363
2011-05-17 07:20:14 51°19.011 2°54.924 18.7914 0.062657 0.359538 -3.020363
2011-05-17 07:20:19 51°19.018 2°54.947 18.8061 0.062657 0.359525 -3.020363
2011-05-17 07:20:25 51°19.026 2°54.974 18.7765 0.062657 0.359532 -3.020363
2011-05-17 07:20:29 51°19.032 2°54.992 18.7952 0.062657 0.359525 -3.020363
2011-05-17 07:20:34 51°19.039 2°55.014 18.7963 0.062657 0.359525 -3.020363
2011-05-17 07:20:39 51°19.047 2°55.036 18.807 0.062657 0.359525 -3.020363
2011-05-17 07:20:45 51°19.055 2°55.063 18.8034 0.062657 0.359538 -3.020363
2011-05-17 07:20:49 51°19.061 2°55.081 18.7893 0.062657 0.359538 -3.020363
2011-05-17 07:20:55 51°19.07 2°55.107 18.8099 0.062657 0.359532 -3.020363
2011-05-17 07:20:59 51°19.076 2°55.125 18.7941 0.062657 0.359545 -3.020363
2011-05-17 07:21:04 51°19.084 2°55.147 18.7836 0.062657 0.359532 -3.020363
2011-05-17 07:21:09 51°19.091 2°55.169 18.8077 0.062657 0.359532 -3.020363
2011-05-17 07:21:14 51°19.098 2°55.191 18.799 0.062657 0.359538 -3.020363
2011-05-17 07:21:20 51°19.107 2°55.217 18.7914 0.062657 0.359538 -3.020363
2011-05-17 07:21:25 51°19.113 2°55.239 18.7857 0.062657 0.359532 -3.020363
2011-05-17 07:21:29 51°19.119 2°55.257 18.7825 0.062759 0.360134 -3.020363
2011-05-17 07:21:35 51°19.126 2°55.285 18.825 0.062759 0.360127 -3.020363
2011-05-17 07:21:40 51°19.131 2°55.308 18.8174 0.062759 0.360127 -3.020363
2011-05-17 07:21:45 51°19.139 2°55.33 18.8157 0.062759 0.360141 -3.020363
2011-05-17 07:21:49 51°19.144 2°55.348 18.8148 0.062759 0.360141 -3.020363
2011-05-17 07:21:54 51°19.152 2°55.369 18.8082 0.062657 0.359525 -3.020363
2011-05-17 07:22:00 51°19.161 2°55.396 18.8006 0.062759 0.360127 -3.020363
2011-05-17 07:22:05 51°19.17 2°55.417 18.815 0.062657 0.359511 -3.020363
2011-05-17 07:22:09 51°19.175 2°55.435 18.8085 0.062657 0.359511 -3.020363
2011-05-17 07:22:13 51°19.181 2°55.453 18.8144 0.062657 0.359504 -3.020363
2011-05-17 07:22:19 51°19.19 2°55.479 18.8231 0.062759 0.36012 -3.020363
2011-05-17 07:22:25 51°19.2 2°55.506 18.8142 0.062759 0.36012 -3.020363
2011-05-17 07:22:29 51°19.206 2°55.523 18.8207 0.062657 0.359518 -3.020363
2011-05-17 07:22:34 51°19.214 2°55.545 18.8111 0.062759 0.360127 -3.020363
2011-05-17 07:22:39 51°19.223 2°55.566 18.7339 0.062759 0.360127 -3.020363
2011-05-17 07:22:45 51°19.232 2°55.592 18.7794 0.062759 0.36012 -3.020363
2011-05-17 07:22:49 51°19.238 2°55.609 18.8615 0.062759 0.36012 -3.020363
2011-05-17 07:22:55 51°19.247 2°55.636 18.8476 0.062657 0.359504 -3.020363
2011-05-17 07:22:59 51°19.253 2°55.653 18.8513 0.062657 0.359504 -3.020363
2011-05-17 07:23:04 51°19.26 2°55.675 18.8397 0.062759 0.360114 -3.020363
2011-05-17 07:23:09 51°19.266 2°55.698 18.8219 0.062759 0.360114 -3.020363
2011-05-17 07:23:15 51°19.275 2°55.725 18.8177 0.062759 0.36012 -3.020363
2011-05-17 07:23:19 51°19.281 2°55.742 18.8275 0.062759 0.36012 -3.020363
2011-05-17 07:23:25 51°19.289 2°55.768 18.8282 0.062759 0.360114 -3.020363
2011-05-17 07:23:29 51°19.294 2°55.786 18.8303 0.062657 0.359504 -3.020363
2011-05-17 07:23:35 51°19.302 2°55.813 18.8306 0.062759 0.36012 -3.020363
2011-05-17 07:23:40 51°19.31 2°55.834 18.8297 0.062759 0.36012 -3.020363
2011-05-17 07:23:44 51°19.315 2°55.852 18.8338 0.062759 0.360107 -3.020363
2011-05-17 07:23:49 51°19.322 2°55.874 18.8322 0.062657 0.359498 -3.020363
2011-05-17 07:23:55 51°19.331 2°55.901 18.8362 0.062759 0.3601 -3.020363
2011-05-17 07:24:00 51°19.337 2°55.923 18.8363 0.062759 0.360107 -3.020363
2011-05-17 07:24:05 51°19.344 2°55.944 18.8405 0.062759 0.360114 -3.020363
2011-05-17 07:24:09 51°19.349 2°55.963 18.839 0.062759 0.360114 -3.020363
2011-05-17 07:24:15 51°19.36 2°55.987 18.8412 0.062759 0.360114 -3.020363
2011-05-17 07:24:20 51°19.366 2°56.01 18.8447 0.062759 0.360107 -3.020363
2011-05-17 07:24:25 51°19.375 2°56.03 18.8447 0.062657 0.359511 -3.020363
2011-05-17 07:24:29 51°19.381 2°56.048 18.8456 0.062759 0.360127 -3.020363
2011-05-17 07:24:33 51°19.387 2°56.065 18.8447 0.062759 0.36012 -3.020363
2011-05-17 07:24:39 51°19.396 2°56.09 18.8507 0.062759 0.36012 -3.020363
2011-05-17 07:24:45 51°19.404 2°56.116 18.8472 0.062759 0.360127 -3.020363
2011-05-17 07:24:49 51°19.411 2°56.133 18.8509 0.062759 0.360114 -3.020363
2011-05-17 07:24:55 51°19.419 2°56.16 18.8564 0.062657 0.359498 -3.020363
2011-05-17 07:24:59 51°19.425 2°56.177 18.8552 0.062759 0.3601 -3.020363
2011-05-17 07:25:05 51°19.435 2°56.202 18.8608 0.062759 0.360107 -3.020363
2011-05-17 07:25:09 51°19.441 2°56.219 18.8572 0.062759 0.360107 -3.020363
2011-05-17 07:25:14 51°19.45 2°56.239 18.8608 0.062759 0.3601 -3.020363
2011-05-17 07:25:20 51°19.459 2°56.265 18.8616 0.062657 0.359491 -3.020363
2011-05-17 07:25:24 51°19.465 2°56.283 18.8639 0.062759 0.360093 -3.020363
2011-05-17 07:25:29 51°19.472 2°56.305 18.8655 0.062759 0.360086 -3.020363
2011-05-17 07:25:35 51°19.48 2°56.333 18.8667 0.062759 0.360086 -3.020363
2011-05-17 07:25:40 51°19.487 2°56.355 18.8662 0.062759 0.360086 -3.020363
2011-05-17 07:25:44 51°19.491 2°56.374 18.8714 0.062759 0.360073 -3.020363
2011-05-17 07:25:49 51°19.496 2°56.398 18.8738 0.062759 0.360073 -3.020363
2011-05-17 07:25:54 51°19.5 2°56.422 18.8747 0.062759 0.360066 -3.020363
2011-05-17 07:26:00 51°19.505 2°56.451 18.875 0.062759 0.360066 -3.020363
2011-05-17 07:26:05 51°19.508 2°56.475 18.8749 0.062759 0.360066 -3.020363
2011-05-17 07:26:09 51°19.511 2°56.494 18.8811 0.062759 0.360066 -3.020363
2011-05-17 07:26:14 51°19.513 2°56.519 18.8777 0.062759 0.360066 -3.020363
2011-05-17 07:26:20 51°19.517 2°56.548 18.8846 0.062759 0.360059 -3.020363
2011-05-17 07:26:25 51°19.519 2°56.573 18.8836 0.062759 0.360066 -3.020363
2011-05-17 07:26:29 51°19.522 2°56.592 18.8889 0.062759 0.360059 -3.020363
2011-05-17 07:26:34 51°19.524 2°56.617 18.8853 0.062759 0.360066 -3.020363
2011-05-17 07:26:40 51°19.528 2°56.646 18.8919 0.062759 0.360066 -3.020363
2011-05-17 07:26:45 51°19.531 2°56.672 18.8895 0.062759 0.360066 -3.020363
2011-05-17 07:26:49 51°19.534 2°56.691 18.8911 0.062759 0.360066 -3.020363
2011-05-17 07:26:53 51°19.536 2°56.711 18.8939 0.062759 0.360066 -3.020363
2011-05-17 07:26:59 51°19.54 2°56.741 18.8948 0.062759 0.360066 -3.020363
2011-05-17 07:27:05 51°19.544 2°56.77 18.898 0.062657 0.35945 -3.020363
2011-05-17 07:27:09 51°19.546 2°56.79 18.9012 0.062657 0.35945 -3.020363
2011-05-17 07:27:15 51°19.55 2°56.819 18.8979 0.062759 0.360066 -3.020363
2011-05-17 07:27:19 51°19.553 2°56.839 18.9019 0.062759 0.360066 -3.020363
2011-05-17 07:27:25 51°19.557 2°56.868 18.897 0.062759 0.360052 -3.020363
2011-05-17 07:27:29 51°19.559 2°56.887 18.8998 0.062759 0.360052 -3.020363
2011-05-17 07:27:34 51°19.562 2°56.912 18.9012 0.062759 0.360046 -3.020363
2011-05-17 07:27:40 51°19.565 2°56.941 18.9072 0.062759 0.360046 -3.020363
2011-05-17 07:27:44 51°19.567 2°56.961 18.9119 0.062759 0.360046 -3.020363
2011-05-17 07:27:49 51°19.57 2°56.986 18.9138 0.062759 0.360052 -3.020363
2011-05-17 07:27:55 51°19.575 2°57.015 18.919 0.062759 0.360046 -3.020363
2011-05-17 07:28:00 51°19.578 2°57.039 18.9195 0.062759 0.360046 -3.020363
2011-05-17 07:28:05 51°19.583 2°57.063 18.9243 0.062759 0.360046 -3.020363
2011-05-17 07:28:09 51°19.585 2°57.082 18.925 0.062759 0.360046 -3.020363
2011-05-17 07:28:14 51°19.589 2°57.107 18.9237 0.062759 0.360046 -3.020363
2011-05-17 07:28:20 51°19.594 2°57.135 18.9143 0.062759 0.360046 -3.020363
2011-05-17 07:28:25 51°19.598 2°57.159 18.9112 0.062759 0.360046 -3.020363
2011-05-17 07:28:29 51°19.601 2°57.177 18.8313 0.062759 0.360046 -3.020363
2011-05-17 07:28:34 51°19.606 2°57.201 18.8613 0.062759 0.360039 -3.020363
2011-05-17 07:28:40 51°19.612 2°57.229 18.8771 0.062759 0.360039 -3.020363
2011-05-17 07:28:45 51°19.615 2°57.252 18.7863 0.062759 0.360032 -3.020363
2011-05-17 07:28:49 51°19.618 2°57.271 18.8178 0.062759 0.360032 -3.020363
2011-05-17 07:28:54 51°19.622 2°57.294 18.8322 0.062759 0.360025 -3.020363
2011-05-17 07:29:00 51°19.626 2°57.323 18.8353 0.062759 0.360025 -3.020363
2011-05-17 07:29:05 51°19.63 2°57.346 18.8481 0.062759 0.360018 -3.020363
2011-05-17 07:29:09 51°19.633 2°57.365 18.8165 0.062759 0.360018 -3.020363
2011-05-17 07:29:13 51°19.636 2°57.384 18.839 0.062759 0.360025 -3.020363
2011-05-17 07:29:19 51°19.641 2°57.413 18.8242 0.062759 0.360025 -3.020363
2011-05-17 07:29:25 51°19.646 2°57.441 18.8594 0.062759 0.360025 -3.020363
2011-05-17 07:29:29 51°19.65 2°57.46 18.8487 0.062759 0.360025 -3.020363
2011-05-17 07:29:35 51°19.655 2°57.489 18.8501 0.062759 0.360025 -3.020363
2011-05-17 07:29:39 51°19.66 2°57.507 18.8513 0.062759 0.360025 -3.020363
2011-05-17 07:29:45 51°19.666 2°57.535 18.8574 0.062759 0.360018 -3.020363
2011-05-17 07:29:49 51°19.67 2°57.554 18.8423 0.062759 0.360012 -3.020363
2011-05-17 07:29:54 51°19.674 2°57.578 18.8579 0.062759 0.360012 -3.020363
2011-05-17 07:30:00 51°19.681 2°57.606 18.847 0.062759 0.360005 -3.020363
2011-05-17 07:30:05 51°19.686 2°57.63 18.8496 0.062759 0.360005 -3.020363
2011-05-17 07:30:09 51°19.69 2°57.648 18.8406 0.062759 0.360005 -3.020363
2011-05-17 07:30:14 51°19.694 2°57.672 18.8785 0.062759 0.360018 -3.020363
2011-05-17 07:30:20 51°19.701 2°57.7 18.8532 0.062759 0.360005 -3.020363
2011-05-17 07:30:25 51°19.705 2°57.724 18.8605 0.062759 0.360005 -3.020363
2011-05-17 07:30:29 51°19.708 2°57.744 18.8511 0.062759 0.360005 -3.020363
2011-05-17 07:30:34 51°19.713 2°57.768 18.8647 0.062759 0.360012 -3.020363
2011-05-17 07:30:40 51°19.718 2°57.797 18.8626 0.062759 0.360012 -3.020363
2011-05-17 07:30:45 51°19.721 2°57.821 18.8555 0.062759 0.360005 -3.020363
2011-05-17 07:30:49 51°19.724 2°57.84 18.8527 0.062759 0.360005 -3.020363
2011-05-17 07:30:53 51°19.726 2°57.86 18.8888 0.062759 0.360005 -3.020363
2011-05-17 07:31:00 51°19.732 2°57.895 18.8845 0.062759 0.359998 -3.020363
2011-05-17 07:31:05 51°19.734 2°57.921 18.8747 0.062759 0.359998 -3.020363
2011-05-17 07:31:09 51°19.737 2°57.941 18.8754 0.062759 0.359998 -3.020363
2011-05-17 07:31:14 51°19.74 2°57.965 18.862 0.062759 0.359991 -3.020363
2011-05-17 07:31:19 51°19.743 2°57.99 18.8663 0.062759 0.359991 -3.020363
2011-05-17 07:31:25 51°19.746 2°58.02 18.8491 0.062759 0.359991 -3.020363
2011-05-17 07:31:29 51°19.748 2°58.04 18.8813 0.062759 0.359991 -3.020363
2011-05-17 07:31:33 51°19.752 2°58.059 18.8653 0.062759 0.359991 -3.020363
2011-05-17 07:31:39 51°19.756 2°58.089 18.8784 0.062759 0.359991 -3.020363
2011-05-17 07:31:45 51°19.761 2°58.119 18.8736 0.062759 0.359984 -3.020363
2011-05-17 07:31:49 51°19.764 2°58.139 18.8816 0.062759 0.359984 -3.020363
2011-05-17 07:31:54 51°19.768 2°58.164 18.8854 0.062759 0.359978 -3.020363
2011-05-17 07:31:59 51°19.771 2°58.188 18.8901 0.062759 0.359978 -3.020363
2011-05-17 07:32:05 51°19.776 2°58.217 18.8841 0.062759 0.359971 -3.020363
2011-05-17 07:32:09 51°19.778 2°58.237 18.8829 0.062759 0.359971 -3.020363
2011-05-17 07:32:15 51°19.783 2°58.268 18.8853 0.062759 0.359971 -3.020363
2011-05-17 07:32:19 51°19.785 2°58.288 18.8813 0.062759 0.359964 -3.020363
2011-05-17 07:32:24 51°19.788 2°58.312 18.8754 0.062759 0.359957 -3.020363
2011-05-17 07:32:29 51°19.79 2°58.336 18.8745 0.062759 0.359964 -3.020363
2011-05-17 07:32:35 51°19.794 2°58.365 18.8779 0.062759 0.359964 -3.020363
2011-05-17 07:32:39 51°19.796 2°58.385 18.8779 0.062759 0.359964 -3.020363
2011-05-17 07:32:45 51°19.8 2°58.414 18.8663 0.062759 0.359964 -3.020363
2011-05-17 07:32:49 51°19.803 2°58.433 18.896 0.062759 0.359964 -3.020363
2011-05-17 07:32:55 51°19.808 2°58.461 18.8743 0.062759 0.359957 -3.020363
2011-05-17 07:33:00 51°19.812 2°58.485 18.8974 0.062759 0.359964 -3.020363
2011-05-17 07:33:05 51°19.817 2°58.509 18.8764 0.062759 0.359964 -3.020363
2011-05-17 07:33:09 51°19.82 2°58.528 18.8917 0.062759 0.359964 -3.020363
2011-05-17 07:33:15 51°19.826 2°58.556 18.8715 0.062759 0.359957 -3.020363
2011-05-17 07:33:20 51°19.829 2°58.579 18.8943 0.062759 0.359964 -3.020363
2011-05-17 07:33:25 51°19.834 2°58.602 18.8933 0.062759 0.359957 -3.020363
2011-05-17 07:33:29 51°19.837 2°58.621 18.896 0.062759 0.359964 -3.020363
2011-05-17 07:33:33 51°19.84 2°58.64 18.9023 0.062759 0.359957 -3.020363
2011-05-17 07:33:40 51°19.846 2°58.673 18.8908 0.062759 0.359957 -3.020363
2011-05-17 07:33:45 51°19.851 2°58.696 18.8875 0.062759 0.359957 -3.020363
2011-05-17 07:33:49 51°19.855 2°58.714 18.8961 0.062759 0.359951 -3.020363
2011-05-17 07:33:54 51°19.86 2°58.737 18.9078 0.062759 0.359944 -3.020363
2011-05-17 07:33:59 51°19.865 2°58.759 18.8975 0.062759 0.35993 -3.020363
2011-05-17 07:34:05 51°19.87 2°58.787 18.906 0.062759 0.359923 -3.020363
2011-05-17 07:34:09 51°19.874 2°58.806 18.904 0.062759 0.359923 -3.020363
2011-05-17 07:34:15 51°19.879 2°58.834 18.9037 0.062759 0.359917 -3.020363
2011-05-17 07:34:19 51°19.882 2°58.852 18.9063 0.062759 0.359917 -3.020363
2011-05-17 07:34:24 51°19.886 2°58.876 18.9129 0.062759 0.359923 -3.020363
2011-05-17 07:34:29 51°19.89 2°58.899 18.9132 0.062759 0.359923 -3.020363
2011-05-17 07:34:34 51°19.894 2°58.923 18.9104 0.062759 0.359917 -3.020363
2011-05-17 07:34:40 51°19.898 2°58.952 18.9159 0.062759 0.359917 -3.020363
2011-05-17 07:34:45 51°19.902 2°58.976 18.9142 0.062759 0.359917 -3.020363
2011-05-17 07:34:49 51°19.905 2°58.995 18.9123 0.062759 0.359917 -3.020363
2011-05-17 07:34:54 51°19.908 2°59.019 18.9176 0.062759 0.359917 -3.020363
2011-05-17 07:35:00 51°19.912 2°59.048 18.9155 0.062759 0.35991 -3.020363
2011-05-17 07:35:05 51°19.916 2°59.072 18.9125 0.062759 0.359903 -3.020363
2011-05-17 07:35:09 51°19.917 2°59.092 18.8981 0.062759 0.359903 -3.020363
2011-05-17 07:35:14 51°19.92 2°59.116 18.9163 0.062759 0.359917 -3.020363
2011-05-17 07:35:20 51°19.925 2°59.145 18.9129 0.062759 0.359903 -3.020363
2011-05-17 07:35:25 51°19.929 2°59.169 18.9206 0.062759 0.359917 -3.020363
2011-05-17 07:35:29 51°19.933 2°59.187 18.9247 0.062759 0.359903 -3.020363
2011-05-17 07:35:33 51°19.937 2°59.206 18.9156 0.062759 0.359903 -3.020363
2011-05-17 07:35:40 51°19.942 2°59.239 18.9127 0.062759 0.359903 -3.020363
2011-05-17 07:35:45 51°19.947 2°59.263 18.9151 0.062759 0.359896 -3.020363
2011-05-17 07:35:49 51°19.95 2°59.282 18.9193 0.062759 0.359896 -3.020363
2011-05-17 07:35:53 51°19.953 2°59.301 18.9178 0.062759 0.359889 -3.020363
2011-05-17 07:35:59 51°19.958 2°59.329 18.9287 0.062759 0.359896 -3.020363
2011-05-17 07:36:05 51°19.963 2°59.357 18.9193 0.062759 0.359889 -3.020363
2011-05-17 07:36:09 51°19.966 2°59.377 18.9334 0.062759 0.359889 -3.020363
2011-05-17 07:36:14 51°19.972 2°59.4 18.9264 0.062759 0.359883 -3.020363
2011-05-17 07:36:19 51°19.975 2°59.423 18.9269 0.062759 0.359883 -3.020363
2011-05-17 07:36:24 51°19.979 2°59.447 18.9274 0.062759 0.359869 -3.020363
2011-05-17 07:36:29 51°19.982 2°59.47 18.9286 0.062759 0.359876 -3.020363
2011-05-17 07:36:35 51°19.986 2°59.498 18.9354 0.062759 0.359883 -3.020363
2011-05-17 07:36:39 51°19.989 2°59.517 18.9372 0.062759 0.359883 -3.020363
2011-05-17 07:36:44 51°19.993 2°59.541 18.9349 0.062759 0.359883 -3.020363
2011-05-17 07:36:49 51°19.997 2°59.564 18.9349 0.062759 0.359883 -3.020363
2011-05-17 07:36:54 51°20.001 2°59.587 18.9349 0.062759 0.359869 -3.020363
2011-05-17 07:36:59 51°20.005 2°59.61 18.9364 0.062759 0.359869 -3.020363
2011-05-17 07:37:05 51°20.01 2°59.637 18.9401 0.062759 0.359862 -3.020363
2011-05-17 07:37:09 51°20.013 2°59.656 18.9394 0.062759 0.359862 -3.020363
2011-05-17 07:37:15 51°20.019 2°59.684 18.9367 0.062759 0.359862 -3.020363
2011-05-17 07:37:20 51°20.024 2°59.707 18.945 0.062759 0.359869 -3.020363
2011-05-17 07:37:25 51°20.029 2°59.729 18.9409 0.062759 0.359855 -3.020363
2011-05-17 07:37:29 51°20.033 2°59.748 18.9441 0.062759 0.359855 -3.020363
2011-05-17 07:37:34 51°20.038 2°59.77 18.9443 0.062759 0.359855 -3.020363
2011-05-17 07:37:40 51°20.044 2°59.797 18.9446 0.062759 0.359855 -3.020363
2011-05-17 07:37:45 51°20.049 2°59.82 18.9467 0.062759 0.359849 -3.020363
2011-05-17 07:37:49 51°20.052 2°59.838 18.9441 0.062759 0.359842 -3.020363
2011-05-17 07:37:53 51°20.056 2°59.856 18.9551 0.062759 0.359855 -3.020363
2011-05-17 07:38:00 51°20.064 2°59.887 18.951 0.062759 0.359842 -3.020363
2011-05-17 07:38:05 51°20.068 2°59.91 18.9528 0.062759 0.359842 -3.020363
2011-05-17 07:38:09 51°20.072 2°59.928 18.9558 0.062759 0.359842 -3.020363
2011-05-17 07:38:13 51°20.075 2°59.947 18.9525 0.062759 0.359828 -3.020363
2011-05-17 07:38:19 51°20.078 2°59.975 18.9594 0.062759 0.359842 -3.020363
2011-05-17 07:38:25 51°20.084 3°0.003 18.9565 0.062759 0.359835 -3.020363
2011-05-17 07:38:29 51°20.086 3°0.021 18.9583 0.062759 0.359842 -3.020363
2011-05-17 07:38:34 51°20.09 3°0.045 18.9625 0.062759 0.359828 -3.020363
2011-05-17 07:38:39 51°20.093 3°0.068 18.9588 0.062759 0.359828 -3.020363
2011-05-17 07:38:44 51°20.095 3°0.091 18.9641 0.062759 0.359835 -3.020363
2011-05-17 07:38:49 51°20.099 3°0.115 18.9621 0.062759 0.359828 -3.020363
2011-05-17 07:38:54 51°20.101 3°0.139 18.9556 0.062759 0.359822 -3.020363
2011-05-17 07:39:00 51°20.104 3°0.167 18.9604 0.062759 0.359828 -3.020363
2011-05-17 07:39:05 51°20.108 3°0.19 18.9554 0.062759 0.359828 -3.020363
2011-05-17 07:39:09 51°20.11 3°0.209 18.9569 0.062759 0.359828 -3.020363
2011-05-17 07:39:14 51°20.115 3°0.231 18.9578 0.062759 0.359822 -3.020363
2011-05-17 07:39:19 51°20.12 3°0.254 18.9626 0.062759 0.359822 -3.020363
2011-05-17 07:39:25 51°20.126 3°0.28 18.9631 0.062759 0.359808 -3.020363
2011-05-17 07:39:29 51°20.13 3°0.298 18.9645 0.062759 0.359801 -3.020363
2011-05-17 07:39:35 51°20.136 3°0.324 18.9696 0.062759 0.359801 -3.020363
2011-05-17 07:39:40 51°20.141 3°0.345 18.9722 0.062759 0.359801 -3.020363
2011-05-17 07:39:45 51°20.146 3°0.368 18.9696 0.062759 0.359801 -3.020363
2011-05-17 07:39:49 51°20.149 3°0.386 18.9741 0.062759 0.359808 -3.020363
2011-05-17 07:39:54 51°20.155 3°0.407 18.9722 0.062759 0.359794 -3.020363
2011-05-17 07:40:00 51°20.16 3°0.433 18.974 0.062759 0.359801 -3.020363
2011-05-17 07:40:05 51°20.166 3°0.454 18.9717 0.062759 0.359801 -3.020363
2011-05-17 07:40:09 51°20.171 3°0.472 18.9696 0.062759 0.359801 -3.020363
2011-05-17 07:40:13 51°20.175 3°0.489 18.9761 0.062759 0.359801 -3.020363
2011-05-17 07:40:20 51°20.183 3°0.519 18.9789 0.062759 0.359808 -3.020363
2011-05-17 07:40:25 51°20.189 3°0.539 18.9788 0.062759 0.359801 -3.020363
2011-05-17 07:40:29 51°20.193 3°0.558 18.9805 0.062759 0.359794 -3.020363
2011-05-17 07:40:34 51°20.199 3°0.579 18.9798 0.062759 0.359788 -3.020363
2011-05-17 07:40:39 51°20.204 3°0.601 18.9823 0.062759 0.359788 -3.020363
2011-05-17 07:40:45 51°20.21 3°0.627 18.9897 0.062759 0.359801 -3.020363
2011-05-17 07:40:49 51°20.215 3°0.645 18.9862 0.062759 0.359781 -3.020363
2011-05-17 07:40:53 51°20.218 3°0.663 18.9886 0.062759 0.359788 -3.020363
2011-05-17 07:40:59 51°20.224 3°0.69 18.9861 0.062759 0.359781 -3.020363
2011-05-17 07:41:05 51°20.229 3°0.717 18.988 0.062759 0.359781 -3.020363
2011-05-17 07:41:09 51°20.233 3°0.735 18.9879 0.062759 0.359781 -3.020363
2011-05-17 07:41:15 51°20.239 3°0.762 18.99 0.062759 0.359788 -3.020363
2011-05-17 07:41:19 51°20.243 3°0.78 18.9885 0.062759 0.359781 -3.020363
2011-05-17 07:41:25 51°20.248 3°0.807 18.9908 0.062759 0.359781 -3.020363
2011-05-17 07:41:29 51°20.252 3°0.825 18.9908 0.062759 0.359774 -3.020363
2011-05-17 07:41:35 51°20.259 3°0.852 18.9919 0.062759 0.359761 -3.020363
2011-05-17 07:41:39 51°20.263 3°0.869 18.9921 0.062759 0.359761 -3.020363
2011-05-17 07:41:45 51°20.269 3°0.896 18.9968 0.062759 0.359767 -3.020363
2011-05-17 07:41:49 51°20.274 3°0.913 18.994 0.062759 0.359754 -3.020363
2011-05-17 07:41:55 51°20.281 3°0.939 18.9979 0.062759 0.359754 -3.020363
2011-05-17 07:42:00 51°20.288 3°0.96 18.9987 0.062759 0.359754 -3.020363
2011-05-17 07:42:05 51°20.294 3°0.982 19.002 0.062759 0.359747 -3.020363
2011-05-17 07:42:09 51°20.3 3°0.998 19.0007 0.062759 0.359747 -3.020363
2011-05-17 07:42:15 51°20.307 3°1.025 19.0034 0.062759 0.359747 -3.020363
2011-05-17 07:42:20 51°20.314 3°1.047 19.0027 0.062759 0.35974 -3.020363
2011-05-17 07:42:25 51°20.319 3°1.07 19.0037 0.062759 0.35974 -3.020363
2011-05-17 07:42:29 51°20.324 3°1.087 19.0041 0.062759 0.35974 -3.020363
2011-05-17 07:42:34 51°20.329 3°1.11 19.0061 0.062759 0.359733 -3.020363
2011-05-17 07:42:40 51°20.335 3°1.137 19.0057 0.062759 0.359733 -3.020363
2011-05-17 07:42:45 51°20.34 3°1.16 19.0068 0.062759 0.35974 -3.020363
2011-05-17 07:42:49 51°20.344 3°1.178 19.0076 0.062759 0.35974 -3.020363
2011-05-17 07:42:55 51°20.35 3°1.206 19.0085 0.062759 0.35974 -3.020363
2011-05-17 07:42:59 51°20.354 3°1.224 19.0094 0.062759 0.35974 -3.020363
2011-05-17 07:43:04 51°20.359 3°1.246 19.0099 0.062759 0.35974 -3.020363
2011-05-17 07:43:09 51°20.365 3°1.268 19.0131 0.062759 0.35974 -3.020363
2011-05-17 07:43:14 51°20.371 3°1.289 19.0135 0.062759 0.359733 -3.020363
2011-05-17 07:43:19 51°20.376 3°1.312 19.0144 0.062759 0.359733 -3.020363
2011-05-17 07:43:24 51°20.382 3°1.335 19.0161 0.062759 0.35972 -3.020363
2011-05-17 07:43:29 51°20.386 3°1.357 19.0173 0.062759 0.35972 -3.020363
2011-05-17 07:43:34 51°20.39 3°1.38 19.0175 0.062759 0.35972 -3.020363
2011-05-17 07:43:40 51°20.396 3°1.407 19.0177 0.062759 0.35972 -3.020363
2011-05-17 07:43:45 51°20.4 3°1.431 19.0185 0.062759 0.359713 -3.020363
2011-05-17 07:43:49 51°20.404 3°1.449 19.0198 0.062759 0.359713 -3.020363
2011-05-17 07:43:55 51°20.409 3°1.477 19.0214 0.062759 0.35972 -3.020363
2011-05-17 07:44:00 51°20.415 3°1.499 19.0228 0.062759 0.359706 -3.020363
2011-05-17 07:44:05 51°20.419 3°1.522 19.0235 0.062759 0.359713 -3.020363
2011-05-17 07:44:09 51°20.423 3°1.54 19.0241 0.062759 0.359713 -3.020363
2011-05-17 07:44:14 51°20.428 3°1.562 19.0248 0.062759 0.359706 -3.020363
2011-05-17 07:44:20 51°20.434 3°1.589 19.0261 0.062759 0.35972 -3.020363
2011-05-17 07:44:25 51°20.441 3°1.611 19.0272 0.062759 0.359727 -3.020363
2011-05-17 07:44:29 51°20.446 3°1.629 19.0279 0.062759 0.359706 -3.020363
2011-05-17 07:44:33 51°20.45 3°1.647 19.0289 0.062759 0.359699 -3.020363
2011-05-17 07:44:40 51°20.457 3°1.678 19.0298 0.062759 0.359699 -3.020363
2011-05-17 07:44:45 51°20.461 3°1.702 19.0305 0.062759 0.359699 -3.020363
2011-05-17 07:44:49 51°20.466 3°1.719 19.0316 0.062759 0.359699 -3.020363
2011-05-17 07:44:54 51°20.47 3°1.742 19.0328 0.062759 0.359699 -3.020363
2011-05-17 07:44:59 51°20.475 3°1.765 19.0335 0.062759 0.359699 -3.020363
2011-05-17 07:45:05 51°20.481 3°1.792 19.0343 0.062759 0.359693 -3.020363
2011-05-17 07:45:09 51°20.485 3°1.81 19.0355 0.062759 0.359693 -3.020363
2011-05-17 07:45:15 51°20.491 3°1.838 19.036 0.062759 0.359699 -3.020363
2011-05-17 07:45:19 51°20.496 3°1.855 19.0373 0.062759 0.359693 -3.020363
2011-05-17 07:45:24 51°20.499 3°1.878 19.0378 0.062759 0.359693 -3.020363
2011-05-17 07:45:29 51°20.505 3°1.901 19.039 0.062759 0.359686 -3.020363
2011-05-17 07:45:34 51°20.511 3°1.924 19.0396 0.062759 0.359679 -3.020363
2011-05-17 07:45:40 51°20.517 3°1.951 19.0402 0.062759 0.359679 -3.020363
2011-05-17 07:45:44 51°20.52 3°1.969 19.041 0.062759 0.359672 -3.020363
2011-05-17 07:45:49 51°20.525 3°1.993 19.0426 0.062759 0.359672 -3.020363
2011-05-17 07:45:54 51°20.53 3°2.016 19.0438 0.062759 0.359659 -3.020363
2011-05-17 07:46:00 51°20.536 3°2.045 19.0443 0.062759 0.359652 -3.020363
2011-05-17 07:46:05 51°20.54 3°2.068 19.0459 0.062759 0.359638 -3.020363
2011-05-17 07:46:09 51°20.543 3°2.087 19.047 0.062759 0.359638 -3.020363
2011-05-17 07:46:15 51°20.548 3°2.115 19.0492 0.062759 0.359638 -3.020363
2011-05-17 07:46:20 51°20.552 3°2.139 19.0474 0.062759 0.359638 -3.020363
2011-05-17 07:46:25 51°20.556 3°2.162 19.0502 0.062759 0.359632 -3.020363
2011-05-17 07:46:29 51°20.56 3°2.18 19.0516 0.062759 0.359638 -3.020363
2011-05-17 07:46:34 51°20.565 3°2.203 19.0526 0.062759 0.359638 -3.020363
2011-05-17 07:46:40 51°20.571 3°2.23 19.055 0.062759 0.359638 -3.020363
2011-05-17 07:46:45 51°20.576 3°2.253 19.0536 0.062759 0.359638 -3.020363
2011-05-17 07:46:49 51°20.581 3°2.27 19.054 0.062759 0.359645 -3.020363
2011-05-17 07:46:53 51°20.587 3°2.287 19.0561 0.062759 0.359645 -3.020363
2011-05-17 07:47:00 51°20.596 3°2.318 19.0552 0.062759 0.359638 -3.020363
2011-05-17 07:47:05 51°20.602 3°2.34 19.0581 0.062759 0.359638 -3.020363
2011-05-17 07:47:09 51°20.607 3°2.357 19.0582 0.062759 0.359638 -3.020363
2011-05-17 07:47:14 51°20.614 3°2.378 19.0586 0.062759 0.359645 -3.020363
2011-05-17 07:47:19 51°20.622 3°2.399 19.0585 0.062759 0.359638 -3.020363
2011-05-17 07:47:25 51°20.63 3°2.424 19.0583 0.062759 0.359632 -3.020363
2011-05-17 07:47:29 51°20.636 3°2.441 19.0618 0.062862 0.360233 -3.020363
2011-05-17 07:47:34 51°20.642 3°2.464 19.0591 0.062759 0.359618 -3.020363
2011-05-17 07:47:40 51°20.652 3°2.488 19.0635 0.062759 0.359618 -3.020363
2011-05-17 07:47:45 51°20.658 3°2.511 19.063 0.062759 0.359632 -3.020363
2011-05-17 07:47:49 51°20.664 3°2.528 19.0659 0.062759 0.359638 -3.020363
2011-05-17 07:47:54 51°20.67 3°2.55 19.0651 0.062759 0.359659 -3.020363
2011-05-17 07:47:59 51°20.677 3°2.571 19.0672 0.062759 0.359659 -3.020363
2011-05-17 07:48:04 51°20.684 3°2.593 19.0678 0.062759 0.359652 -3.020363
2011-05-17 07:48:09 51°20.692 3°2.615 19.0668 0.062759 0.359652 -3.020363
2011-05-17 07:48:14 51°20.7 3°2.637 19.0669 0.062759 0.359645 -3.020363
2011-05-17 07:48:19 51°20.707 3°2.658 19.0715 0.062759 0.359611 -3.020363
2011-05-17 07:48:25 51°20.715 3°2.685 19.0694 0.062759 0.359598 -3.020363
2011-05-17 07:48:29 51°20.721 3°2.703 19.0725 0.062759 0.359577 -3.020363
2011-05-17 07:48:35 51°20.73 3°2.728 19.0742 0.062759 0.359564 -3.020363
2011-05-17 07:48:40 51°20.736 3°2.751 19.0751 0.062759 0.359564 -3.020363
2011-05-17 07:48:45 51°20.743 3°2.773 19.0725 0.062759 0.359571 -3.020363
2011-05-17 07:48:49 51°20.749 3°2.791 19.0767 0.062759 0.359557 -3.020363
2011-05-17 07:48:54 51°20.755 3°2.813 19.076 0.062759 0.359564 -3.020363
2011-05-17 07:49:00 51°20.763 3°2.84 19.0758 0.062759 0.359557 -3.020363
2011-05-17 07:49:05 51°20.769 3°2.863 19.0802 0.062759 0.359571 -3.020363
2011-05-17 07:49:09 51°20.773 3°2.882 19.0795 0.062759 0.359571 -3.020363
2011-05-17 07:49:13 51°20.778 3°2.9 19.0813 0.062759 0.359564 -3.020363
2011-05-17 07:49:20 51°20.786 3°2.932 19.0815 0.062759 0.359564 -3.020363
2011-05-17 07:49:25 51°20.792 3°2.955 19.0826 0.062759 0.359557 -3.020363
2011-05-17 07:49:29 51°20.796 3°2.974 19.0825 0.062759 0.359564 -3.020363
2011-05-17 07:49:34 51°20.803 3°2.997 19.0844 0.062759 0.359544 -3.020363
2011-05-17 07:49:39 51°20.809 3°3.019 19.0884 0.062759 0.359544 -3.020363
2011-05-17 07:49:45 51°20.816 3°3.046 19.0836 0.062759 0.359557 -3.020363
2011-05-17 07:49:49 51°20.822 3°3.063 19.0833 0.062759 0.359544 -3.020363
2011-05-17 07:49:54 51°20.828 3°3.086 19.0883 0.062862 0.360138 -3.020363
2011-05-17 07:49:59 51°20.834 3°3.109 19.0904 0.062862 0.360145 -3.020363
2011-05-17 07:50:05 51°20.841 3°3.136 19.0902 0.062862 0.360145 -3.020363
2011-05-17 07:50:09 51°20.847 3°3.155 19.0903 0.062862 0.360145 -3.020363
2011-05-17 07:50:14 51°20.854 3°3.177 19.092 0.062862 0.360145 -3.020363
2011-05-17 07:50:19 51°20.861 3°3.199 19.092 0.062862 0.360145 -3.020363
2011-05-17 07:50:24 51°20.868 3°3.221 19.0918 0.062759 0.359537 -3.020363
2011-05-17 07:50:29 51°20.876 3°3.243 19.0924 0.062862 0.360145 -3.020363
2011-05-17 07:50:34 51°20.884 3°3.265 19.0931 0.062862 0.360131 -3.020363
2011-05-17 07:50:39 51°20.891 3°3.287 19.0949 0.062862 0.360131 -3.020363
2011-05-17 07:50:45 51°20.9 3°3.314 19.0943 0.062862 0.360138 -3.020363
2011-05-17 07:50:49 51°20.905 3°3.332 19.0941 0.062862 0.360131 -3.020363
2011-05-17 07:50:55 51°20.913 3°3.359 19.0992 0.062862 0.360125 -3.020363
2011-05-17 07:51:00 51°20.919 3°3.383 19.1023 0.062862 0.360131 -3.020363
2011-05-17 07:51:05 51°20.925 3°3.406 19.0984 0.062862 0.360131 -3.020363
2011-05-17 07:51:09 51°20.93 3°3.424 19.0995 0.062862 0.360131 -3.020363
2011-05-17 07:51:14 51°20.936 3°3.447 19.1014 0.062862 0.360131 -3.020363
2011-05-17 07:51:20 51°20.944 3°3.475 19.1029 0.062862 0.360118 -3.020363
2011-05-17 07:51:25 51°20.949 3°3.498 19.1029 0.062862 0.360118 -3.020363
2011-05-17 07:51:29 51°20.954 3°3.516 19.1066 0.062862 0.360118 -3.020363
2011-05-17 07:51:33 51°20.958 3°3.535 19.1034 0.062862 0.360131 -3.020363
2011-05-17 07:51:39 51°20.966 3°3.562 19.1061 0.062862 0.360131 -3.020363
2011-05-17 07:51:45 51°20.972 3°3.59 19.1078 0.062862 0.360125 -3.020363
2011-05-17 07:51:49 51°20.978 3°3.608 19.1046 0.062862 0.360138 -3.020363
2011-05-17 07:51:55 51°20.986 3°3.635 19.1073 0.062862 0.360125 -3.020363
2011-05-17 07:51:59 51°20.991 3°3.653 19.1109 0.062862 0.360118 -3.020363
2011-05-17 07:52:05 51°20.998 3°3.68 19.112 0.062862 0.360125 -3.020363
2011-05-17 07:52:09 51°21.004 3°3.698 19.1085 0.062862 0.360125 -3.020363
2011-05-17 07:52:14 51°21.01 3°3.72 19.1109 0.062862 0.360118 -3.020363
2011-05-17 07:52:19 51°21.016 3°3.742 19.1135 0.062862 0.360111 -3.020363
2011-05-17 07:52:24 51°21.023 3°3.765 19.1161 0.062862 0.360104 -3.020363
2011-05-17 07:52:29 51°21.029 3°3.788 19.1138 0.062862 0.360111 -3.020363
2011-05-17 07:52:34 51°21.036 3°3.81 19.1135 0.062862 0.360104 -3.020363
2011-05-17 07:52:40 51°21.044 3°3.836 19.1129 0.062862 0.360104 -3.020363
2011-05-17 07:52:45 51°21.051 3°3.858 19.1133 0.062862 0.360104 -3.020363
2011-05-17 07:52:49 51°21.057 3°3.875 19.119 0.062862 0.360091 -3.020363
2011-05-17 07:52:54 51°21.063 3°3.898 19.113 0.062862 0.360098 -3.020363
2011-05-17 07:52:59 51°21.07 3°3.92 19.1173 0.062862 0.360091 -3.020363
2011-05-17 07:53:05 51°21.078 3°3.947 19.12 0.062862 0.360091 -3.020363
2011-05-17 07:53:09 51°21.083 3°3.965 19.1232 0.062862 0.360091 -3.020363
2011-05-17 07:53:14 51°21.088 3°3.988 19.1237 0.062862 0.360084 -3.020363
2011-05-17 07:53:20 51°21.096 3°4.015 19.125 0.062862 0.360091 -3.020363
2011-05-17 07:53:25 51°21.102 3°4.038 19.127 0.062862 0.360098 -3.020363
2011-05-17 07:53:29 51°21.107 3°4.056 19.1232 0.062862 0.360091 -3.020363
2011-05-17 07:53:33 51°21.113 3°4.074 19.128 0.062862 0.360091 -3.020363
2011-05-17 07:53:40 51°21.122 3°4.106 19.1295 0.062862 0.360091 -3.020363
2011-05-17 07:53:45 51°21.128 3°4.129 19.129 0.062862 0.360077 -3.020363
2011-05-17 07:53:49 51°21.133 3°4.148 19.1284 0.062862 0.360084 -3.020363
2011-05-17 07:53:54 51°21.139 3°4.171 19.1286 0.062862 0.360084 -3.020363
2011-05-17 07:53:59 51°21.146 3°4.193 19.1286 0.062862 0.36007 -3.020363
2011-05-17 07:54:05 51°21.153 3°4.221 19.1317 0.062862 0.360064 -3.020363
2011-05-17 07:54:09 51°21.159 3°4.239 19.1296 0.062862 0.360064 -3.020363
2011-05-17 07:54:13 51°21.164 3°4.258 19.1345 0.062862 0.360057 -3.020363
2011-05-17 07:54:19 51°21.171 3°4.286 19.1358 0.062862 0.36005 -3.020363
2011-05-17 07:54:24 51°21.177 3°4.31 19.1351 0.062862 0.36005 -3.020363
2011-05-17 07:54:29 51°21.182 3°4.333 19.1384 0.062862 0.360057 -3.020363